<?xml version="1.0" encoding="UTF-8" standalone="no"?>
<gpx xmlns="http://www.topografix.com/GPX/1/1" creator="GPS Master" version="1.1"
xmlns:xsi="http://www.w3.org/2001/XMLSchema-instance"
xsi:schemaLocation="http://www.topografix.com/GPX/1/1 http://www.topografix.com/GPX/1/1/gpx.xsd"
xmlns:gpxtpx="http://www.garmin.com/xmlschemas/TrackPointExtension/v1">
<trk>
 <name>1 (2013-03-09 08:27:03)</name>
 <number>1</number>
 <trkseg>
 <trkpt lat="30.941035000" lon="120.884600000"><ele>5</ele><time>2013-03-09T07:27:03Z</time></trkpt>
 <trkpt lat="30.941031600" lon="120.884595000"><ele>5</ele><time>2013-03-09T07:27:07Z</time></trkpt>
 <trkpt lat="30.941042800" lon="120.884589900"><ele>4</ele><time>2013-03-09T07:27:11Z</time></trkpt>
 <trkpt lat="30.941049500" lon="120.884587800"><ele>4</ele><time>2013-03-09T07:27:15Z</time></trkpt>
 <trkpt lat="30.941049500" lon="120.884587800"><ele>4</ele><time>2013-03-09T07:27:19Z</time></trkpt>
 <trkpt lat="30.941049500" lon="120.884587800"><ele>4</ele><time>2013-03-09T07:27:23Z</time></trkpt>
 <trkpt lat="30.941049500" lon="120.884587800"><ele>4</ele><time>2013-03-09T07:27:27Z</time></trkpt>
 <trkpt lat="30.941063700" lon="120.884576600"><ele>4</ele><time>2013-03-09T07:27:31Z</time></trkpt>
 <trkpt lat="30.941076600" lon="120.884568300"><ele>3</ele><time>2013-03-09T07:27:35Z</time></trkpt>
 <trkpt lat="30.941080300" lon="120.884563300"><ele>3</ele><time>2013-03-09T07:27:39Z</time></trkpt>
 <trkpt lat="30.941080300" lon="120.884563300"><ele>2</ele><time>2013-03-09T07:27:43Z</time></trkpt>
 <trkpt lat="30.941070300" lon="120.884577800"><ele>2</ele><time>2013-03-09T07:27:47Z</time></trkpt>
 <trkpt lat="30.941070300" lon="120.884577800"><ele>2</ele><time>2013-03-09T07:27:51Z</time></trkpt>
 <trkpt lat="30.941077800" lon="120.884580700"><ele>2</ele><time>2013-03-09T07:27:55Z</time></trkpt>
 <trkpt lat="30.941077800" lon="120.884580700"><ele>2</ele><time>2013-03-09T07:27:59Z</time></trkpt>
 <trkpt lat="30.941080400" lon="120.884574500"><ele>1</ele><time>2013-03-09T07:28:03Z</time></trkpt>
 <trkpt lat="30.941080800" lon="120.884567000"><ele>1</ele><time>2013-03-09T07:28:07Z</time></trkpt>
 <trkpt lat="30.941080800" lon="120.884567000"><ele>1</ele><time>2013-03-09T07:28:11Z</time></trkpt>
 <trkpt lat="30.941080800" lon="120.884567000"><ele>1</ele><time>2013-03-09T07:28:15Z</time></trkpt>
 <trkpt lat="30.941070300" lon="120.884572900"><ele>1</ele><time>2013-03-09T07:28:19Z</time></trkpt>
 <trkpt lat="30.941068700" lon="120.884579500"><ele>1</ele><time>2013-03-09T07:28:23Z</time></trkpt>
 <trkpt lat="30.941065000" lon="120.884608300"><ele>1</ele><time>2013-03-09T07:28:27Z</time></trkpt>
 <trkpt lat="30.941066200" lon="120.884617000"><ele>1</ele><time>2013-03-09T07:28:31Z</time></trkpt>
 <trkpt lat="30.941062000" lon="120.884622000"><ele>1</ele><time>2013-03-09T07:28:35Z</time></trkpt>
 <trkpt lat="30.941051200" lon="120.884621600"><ele>1</ele><time>2013-03-09T07:28:39Z</time></trkpt>
 <trkpt lat="30.941045800" lon="120.884622400"><ele>1</ele><time>2013-03-09T07:28:43Z</time></trkpt>
 <trkpt lat="30.941045800" lon="120.884622400"><ele>1</ele><time>2013-03-09T07:28:47Z</time></trkpt>
 <trkpt lat="30.941045800" lon="120.884622400"><ele>1</ele><time>2013-03-09T07:28:51Z</time></trkpt>
 <trkpt lat="30.941045800" lon="120.884622400"><ele>1</ele><time>2013-03-09T07:28:55Z</time></trkpt>
 <trkpt lat="30.941043300" lon="120.884615800"><ele>1</ele><time>2013-03-09T07:28:59Z</time></trkpt>
 <trkpt lat="30.941043300" lon="120.884615800"><ele>1</ele><time>2013-03-09T07:29:03Z</time></trkpt>
 <trkpt lat="30.941043300" lon="120.884615800"><ele>1</ele><time>2013-03-09T07:29:07Z</time></trkpt>
 <trkpt lat="30.941043300" lon="120.884615800"><ele>1</ele><time>2013-03-09T07:29:11Z</time></trkpt>
 <trkpt lat="30.941043300" lon="120.884615800"><ele>1</ele><time>2013-03-09T07:29:15Z</time></trkpt>
 <trkpt lat="30.941043300" lon="120.884615800"><ele>1</ele><time>2013-03-09T07:29:19Z</time></trkpt>
 <trkpt lat="30.941043300" lon="120.884615800"><ele>1</ele><time>2013-03-09T07:29:23Z</time></trkpt>
 <trkpt lat="30.941043300" lon="120.884615800"><ele>1</ele><time>2013-03-09T07:29:27Z</time></trkpt>
 <trkpt lat="30.941043300" lon="120.884615800"><ele>1</ele><time>2013-03-09T07:29:31Z</time></trkpt>
 <trkpt lat="30.941043300" lon="120.884615800"><ele>1</ele><time>2013-03-09T07:29:35Z</time></trkpt>
 <trkpt lat="30.941043300" lon="120.884615800"><ele>1</ele><time>2013-03-09T07:29:39Z</time></trkpt>
 <trkpt lat="30.941043300" lon="120.884615800"><ele>1</ele><time>2013-03-09T07:29:43Z</time></trkpt>
 <trkpt lat="30.941043300" lon="120.884615800"><ele>1</ele><time>2013-03-09T07:29:47Z</time></trkpt>
 <trkpt lat="30.941043300" lon="120.884615800"><ele>1</ele><time>2013-03-09T07:29:51Z</time></trkpt>
 <trkpt lat="30.941043300" lon="120.884615800"><ele>1</ele><time>2013-03-09T07:29:55Z</time></trkpt>
 <trkpt lat="30.941043300" lon="120.884615800"><ele>1</ele><time>2013-03-09T07:29:59Z</time></trkpt>
 <trkpt lat="30.941043300" lon="120.884615800"><ele>1</ele><time>2013-03-09T07:30:03Z</time></trkpt>
 <trkpt lat="30.941043300" lon="120.884615800"><ele>1</ele><time>2013-03-09T07:30:07Z</time></trkpt>
 <trkpt lat="30.941043300" lon="120.884615800"><ele>1</ele><time>2013-03-09T07:30:11Z</time></trkpt>
 <trkpt lat="30.941043300" lon="120.884615800"><ele>1</ele><time>2013-03-09T07:30:15Z</time></trkpt>
 <trkpt lat="30.941043300" lon="120.884615800"><ele>1</ele><time>2013-03-09T07:30:19Z</time></trkpt>
 <trkpt lat="30.941043300" lon="120.884615800"><ele>1</ele><time>2013-03-09T07:30:23Z</time></trkpt>
 <trkpt lat="30.941043300" lon="120.884615800"><ele>1</ele><time>2013-03-09T07:30:27Z</time></trkpt>
 <trkpt lat="30.941043300" lon="120.884615800"><ele>1</ele><time>2013-03-09T07:30:31Z</time></trkpt>
 <trkpt lat="30.941043300" lon="120.884615800"><ele>1</ele><time>2013-03-09T07:30:35Z</time></trkpt>
 <trkpt lat="30.941043300" lon="120.884615800"><ele>1</ele><time>2013-03-09T07:30:39Z</time></trkpt>
 <trkpt lat="30.941043300" lon="120.884615800"><ele>1</ele><time>2013-03-09T07:30:43Z</time></trkpt>
 <trkpt lat="30.941043300" lon="120.884615800"><ele>1</ele><time>2013-03-09T07:30:47Z</time></trkpt>
 <trkpt lat="30.941043300" lon="120.884615800"><ele>1</ele><time>2013-03-09T07:30:51Z</time></trkpt>
 <trkpt lat="30.941043300" lon="120.884615800"><ele>1</ele><time>2013-03-09T07:30:55Z</time></trkpt>
 <trkpt lat="30.941043300" lon="120.884615800"><ele>1</ele><time>2013-03-09T07:30:59Z</time></trkpt>
 <trkpt lat="30.941043300" lon="120.884615800"><ele>1</ele><time>2013-03-09T07:31:03Z</time></trkpt>
 <trkpt lat="30.941043300" lon="120.884615800"><ele>1</ele><time>2013-03-09T07:31:07Z</time></trkpt>
 <trkpt lat="30.941043300" lon="120.884615800"><ele>1</ele><time>2013-03-09T07:31:11Z</time></trkpt>
 <trkpt lat="30.941043300" lon="120.884615800"><ele>1</ele><time>2013-03-09T07:31:15Z</time></trkpt>
 <trkpt lat="30.941043300" lon="120.884615800"><ele>1</ele><time>2013-03-09T07:31:19Z</time></trkpt>
 <trkpt lat="30.941043300" lon="120.884615800"><ele>1</ele><time>2013-03-09T07:31:23Z</time></trkpt>
 <trkpt lat="30.941043300" lon="120.884615800"><ele>1</ele><time>2013-03-09T07:31:27Z</time></trkpt>
 <trkpt lat="30.941043300" lon="120.884615800"><ele>1</ele><time>2013-03-09T07:31:31Z</time></trkpt>
 <trkpt lat="30.941043300" lon="120.884615800"><ele>1</ele><time>2013-03-09T07:31:35Z</time></trkpt>
 <trkpt lat="30.941043300" lon="120.884615800"><ele>1</ele><time>2013-03-09T07:31:39Z</time></trkpt>
 <trkpt lat="30.941043300" lon="120.884615800"><ele>1</ele><time>2013-03-09T07:31:43Z</time></trkpt>
 <trkpt lat="30.941043300" lon="120.884615800"><ele>1</ele><time>2013-03-09T07:31:47Z</time></trkpt>
 <trkpt lat="30.941043300" lon="120.884615800"><ele>0</ele><time>2013-03-09T07:31:51Z</time></trkpt>
 <trkpt lat="30.941043300" lon="120.884615800"><ele>0</ele><time>2013-03-09T07:31:55Z</time></trkpt>
 <trkpt lat="30.941051600" lon="120.884630400"><ele>0</ele><time>2013-03-09T07:31:59Z</time></trkpt>
 <trkpt lat="30.941051600" lon="120.884630400"><ele>0</ele><time>2013-03-09T07:32:03Z</time></trkpt>
 <trkpt lat="30.941052400" lon="120.884637400"><ele>0</ele><time>2013-03-09T07:32:07Z</time></trkpt>
 <trkpt lat="30.941033700" lon="120.884639900"><ele>0</ele><time>2013-03-09T07:32:11Z</time></trkpt>
 <trkpt lat="30.940964900" lon="120.884594100"><ele>0</ele><time>2013-03-09T07:32:15Z</time></trkpt>
 <trkpt lat="30.940904500" lon="120.884474100"><ele>0</ele><time>2013-03-09T07:32:19Z</time></trkpt>
 <trkpt lat="30.940882800" lon="120.884295300"><ele>-1</ele><time>2013-03-09T07:32:23Z</time></trkpt>
 <trkpt lat="30.940852000" lon="120.884156200"><ele>-1</ele><time>2013-03-09T07:32:27Z</time></trkpt>
 <trkpt lat="30.940789500" lon="120.884123700"><ele>-2</ele><time>2013-03-09T07:32:31Z</time></trkpt>
 <trkpt lat="30.940723300" lon="120.884143700"><ele>-2</ele><time>2013-03-09T07:32:35Z</time></trkpt>
 <trkpt lat="30.940658700" lon="120.884163700"><ele>-3</ele><time>2013-03-09T07:32:39Z</time></trkpt>
 <trkpt lat="30.940652900" lon="120.884164900"><ele>-3</ele><time>2013-03-09T07:32:43Z</time></trkpt>
 <trkpt lat="30.940631600" lon="120.884158700"><ele>-3</ele><time>2013-03-09T07:32:47Z</time></trkpt>
 <trkpt lat="30.940614900" lon="120.884164100"><ele>-4</ele><time>2013-03-09T07:32:51Z</time></trkpt>
 <trkpt lat="30.940593700" lon="120.884167000"><ele>-4</ele><time>2013-03-09T07:32:55Z</time></trkpt>
 <trkpt lat="30.940547400" lon="120.884058700"><ele>-5</ele><time>2013-03-09T07:32:59Z</time></trkpt>
 <trkpt lat="30.940513200" lon="120.883859100"><ele>-5</ele><time>2013-03-09T07:33:03Z</time></trkpt>
 <trkpt lat="30.940485300" lon="120.883721200"><ele>-5</ele><time>2013-03-09T07:33:07Z</time></trkpt>
 <trkpt lat="30.940476200" lon="120.883627800"><ele>-5</ele><time>2013-03-09T07:33:11Z</time></trkpt>
 <trkpt lat="30.940478700" lon="120.883547800"><ele>-6</ele><time>2013-03-09T07:33:15Z</time></trkpt>
 <trkpt lat="30.940461600" lon="120.883470800"><ele>-6</ele><time>2013-03-09T07:33:19Z</time></trkpt>
 <trkpt lat="30.940454900" lon="120.883439100"><ele>-6</ele><time>2013-03-09T07:33:23Z</time></trkpt>
 <trkpt lat="30.940450800" lon="120.883387900"><ele>-6</ele><time>2013-03-09T07:33:27Z</time></trkpt>
 <trkpt lat="30.940451200" lon="120.883285700"><ele>-6</ele><time>2013-03-09T07:33:31Z</time></trkpt>
 <trkpt lat="30.940445800" lon="120.883199500"><ele>-6</ele><time>2013-03-09T07:33:35Z</time></trkpt>
 <trkpt lat="30.940428700" lon="120.882996200"><ele>-6</ele><time>2013-03-09T07:33:39Z</time></trkpt>
 <trkpt lat="30.940402500" lon="120.882754100"><ele>-6</ele><time>2013-03-09T07:33:43Z</time></trkpt>
 <trkpt lat="30.940377400" lon="120.882542400"><ele>-7</ele><time>2013-03-09T07:33:47Z</time></trkpt>
 <trkpt lat="30.940358700" lon="120.882346600"><ele>-7</ele><time>2013-03-09T07:33:51Z</time></trkpt>
 <trkpt lat="30.940335800" lon="120.882132400"><ele>-7</ele><time>2013-03-09T07:33:55Z</time></trkpt>
 <trkpt lat="30.940312800" lon="120.881951600"><ele>-7</ele><time>2013-03-09T07:33:59Z</time></trkpt>
 <trkpt lat="30.940303700" lon="120.881875300"><ele>-7</ele><time>2013-03-09T07:34:03Z</time></trkpt>
 <trkpt lat="30.940303700" lon="120.881875300"><ele>-7</ele><time>2013-03-09T07:34:07Z</time></trkpt>
 <trkpt lat="30.940297400" lon="120.881852400"><ele>-7</ele><time>2013-03-09T07:34:11Z</time></trkpt>
 <trkpt lat="30.940295400" lon="120.881696600"><ele>-6</ele><time>2013-03-09T07:34:15Z</time></trkpt>
 <trkpt lat="30.940466600" lon="120.881414900"><ele>-6</ele><time>2013-03-09T07:34:19Z</time></trkpt>
 <trkpt lat="30.940764500" lon="120.881016200"><ele>-5</ele><time>2013-03-09T07:34:23Z</time></trkpt>
 <trkpt lat="30.941134900" lon="120.880533700"><ele>-5</ele><time>2013-03-09T07:34:27Z</time></trkpt>
 <trkpt lat="30.941483700" lon="120.879951200"><ele>-4</ele><time>2013-03-09T07:34:31Z</time></trkpt>
 <trkpt lat="30.941794500" lon="120.879317400"><ele>-4</ele><time>2013-03-09T07:34:35Z</time></trkpt>
 <trkpt lat="30.942076600" lon="120.878641200"><ele>-3</ele><time>2013-03-09T07:34:39Z</time></trkpt>
 <trkpt lat="30.942306200" lon="120.877963300"><ele>-3</ele><time>2013-03-09T07:34:43Z</time></trkpt>
 <trkpt lat="30.942479100" lon="120.877341200"><ele>-2</ele><time>2013-03-09T07:34:47Z</time></trkpt>
 <trkpt lat="30.942602000" lon="120.876795000"><ele>-2</ele><time>2013-03-09T07:34:51Z</time></trkpt>
 <trkpt lat="30.942673300" lon="120.876385800"><ele>-1</ele><time>2013-03-09T07:34:55Z</time></trkpt>
 <trkpt lat="30.942692000" lon="120.876194500"><ele>-1</ele><time>2013-03-09T07:34:59Z</time></trkpt>
 <trkpt lat="30.942683700" lon="120.876158700"><ele>0</ele><time>2013-03-09T07:35:03Z</time></trkpt>
 <trkpt lat="30.942683700" lon="120.876158700"><ele>0</ele><time>2013-03-09T07:35:07Z</time></trkpt>
 <trkpt lat="30.942683700" lon="120.876158700"><ele>0</ele><time>2013-03-09T07:35:11Z</time></trkpt>
 <trkpt lat="30.942683700" lon="120.876158700"><ele>0</ele><time>2013-03-09T07:35:15Z</time></trkpt>
 <trkpt lat="30.942685400" lon="120.876165300"><ele>0</ele><time>2013-03-09T07:35:19Z</time></trkpt>
 <trkpt lat="30.942688700" lon="120.876152800"><ele>0</ele><time>2013-03-09T07:35:23Z</time></trkpt>
 <trkpt lat="30.942704900" lon="120.876023700"><ele>0</ele><time>2013-03-09T07:35:27Z</time></trkpt>
 <trkpt lat="30.942742400" lon="120.875696600"><ele>0</ele><time>2013-03-09T07:35:31Z</time></trkpt>
 <trkpt lat="30.942783300" lon="120.875252000"><ele>0</ele><time>2013-03-09T07:35:35Z</time></trkpt>
 <trkpt lat="30.942806200" lon="120.874735800"><ele>0</ele><time>2013-03-09T07:35:39Z</time></trkpt>
 <trkpt lat="30.942804500" lon="120.874224900"><ele>0</ele><time>2013-03-09T07:35:43Z</time></trkpt>
 <trkpt lat="30.942794900" lon="120.873726600"><ele>0</ele><time>2013-03-09T07:35:47Z</time></trkpt>
 <trkpt lat="30.942764900" lon="120.873190300"><ele>0</ele><time>2013-03-09T07:35:51Z</time></trkpt>
 <trkpt lat="30.942722000" lon="120.872623300"><ele>0</ele><time>2013-03-09T07:35:55Z</time></trkpt>
 <trkpt lat="30.942662400" lon="120.871978700"><ele>0</ele><time>2013-03-09T07:35:59Z</time></trkpt>
 <trkpt lat="30.942593300" lon="120.871245800"><ele>0</ele><time>2013-03-09T07:36:03Z</time></trkpt>
 <trkpt lat="30.942514100" lon="120.870435300"><ele>0</ele><time>2013-03-09T07:36:07Z</time></trkpt>
 <trkpt lat="30.942437800" lon="120.869603700"><ele>0</ele><time>2013-03-09T07:36:11Z</time></trkpt>
 <trkpt lat="30.942368700" lon="120.868770300"><ele>0</ele><time>2013-03-09T07:36:15Z</time></trkpt>
 <trkpt lat="30.942322900" lon="120.867928300"><ele>0</ele><time>2013-03-09T07:36:19Z</time></trkpt>
 <trkpt lat="30.942314500" lon="120.867097400"><ele>0</ele><time>2013-03-09T07:36:23Z</time></trkpt>
 <trkpt lat="30.942329900" lon="120.866308300"><ele>0</ele><time>2013-03-09T07:36:27Z</time></trkpt>
 <trkpt lat="30.942369100" lon="120.865573200"><ele>0</ele><time>2013-03-09T07:36:31Z</time></trkpt>
 <trkpt lat="30.942435800" lon="120.864867400"><ele>0</ele><time>2013-03-09T07:36:35Z</time></trkpt>
 <trkpt lat="30.942521200" lon="120.864175400"><ele>0</ele><time>2013-03-09T07:36:39Z</time></trkpt>
 <trkpt lat="30.942594900" lon="120.863553700"><ele>0</ele><time>2013-03-09T07:36:43Z</time></trkpt>
 <trkpt lat="30.942651600" lon="120.863039900"><ele>0</ele><time>2013-03-09T07:36:47Z</time></trkpt>
 <trkpt lat="30.942698300" lon="120.862650400"><ele>0</ele><time>2013-03-09T07:36:51Z</time></trkpt>
 <trkpt lat="30.942724900" lon="120.862485800"><ele>0</ele><time>2013-03-09T07:36:55Z</time></trkpt>
 <trkpt lat="30.942721600" lon="120.862431600"><ele>0</ele><time>2013-03-09T07:36:59Z</time></trkpt>
 <trkpt lat="30.942719500" lon="120.862421200"><ele>0</ele><time>2013-03-09T07:37:03Z</time></trkpt>
 <trkpt lat="30.942718700" lon="120.862406600"><ele>0</ele><time>2013-03-09T07:37:07Z</time></trkpt>
 <trkpt lat="30.942719100" lon="120.862398300"><ele>0</ele><time>2013-03-09T07:37:11Z</time></trkpt>
 <trkpt lat="30.942734900" lon="120.862282000"><ele>0</ele><time>2013-03-09T07:37:15Z</time></trkpt>
 <trkpt lat="30.942754100" lon="120.862037400"><ele>0</ele><time>2013-03-09T07:37:19Z</time></trkpt>
 <trkpt lat="30.942784500" lon="120.861699100"><ele>0</ele><time>2013-03-09T07:37:23Z</time></trkpt>
 <trkpt lat="30.942831600" lon="120.861312400"><ele>0</ele><time>2013-03-09T07:37:27Z</time></trkpt>
 <trkpt lat="30.942881600" lon="120.860814100"><ele>0</ele><time>2013-03-09T07:37:31Z</time></trkpt>
 <trkpt lat="30.942940800" lon="120.860220400"><ele>0</ele><time>2013-03-09T07:37:35Z</time></trkpt>
 <trkpt lat="30.943000800" lon="120.859539500"><ele>0</ele><time>2013-03-09T07:37:39Z</time></trkpt>
 <trkpt lat="30.943056600" lon="120.858770800"><ele>0</ele><time>2013-03-09T07:37:43Z</time></trkpt>
 <trkpt lat="30.943138700" lon="120.857882900"><ele>0</ele><time>2013-03-09T07:37:47Z</time></trkpt>
 <trkpt lat="30.943229500" lon="120.856971200"><ele>0</ele><time>2013-03-09T07:37:51Z</time></trkpt>
 <trkpt lat="30.943311600" lon="120.856102800"><ele>0</ele><time>2013-03-09T07:37:55Z</time></trkpt>
 <trkpt lat="30.943377800" lon="120.855293300"><ele>0</ele><time>2013-03-09T07:37:59Z</time></trkpt>
 <trkpt lat="30.943442800" lon="120.854538700"><ele>0</ele><time>2013-03-09T07:38:03Z</time></trkpt>
 <trkpt lat="30.943505300" lon="120.853865700"><ele>0</ele><time>2013-03-09T07:38:07Z</time></trkpt>
 <trkpt lat="30.943559100" lon="120.853291200"><ele>0</ele><time>2013-03-09T07:38:11Z</time></trkpt>
 <trkpt lat="30.943606200" lon="120.852802000"><ele>0</ele><time>2013-03-09T07:38:15Z</time></trkpt>
 <trkpt lat="30.943645800" lon="120.852427400"><ele>0</ele><time>2013-03-09T07:38:19Z</time></trkpt>
 <trkpt lat="30.943691200" lon="120.852110800"><ele>0</ele><time>2013-03-09T07:38:23Z</time></trkpt>
 <trkpt lat="30.943720300" lon="120.851861600"><ele>0</ele><time>2013-03-09T07:38:27Z</time></trkpt>
 <trkpt lat="30.943739900" lon="120.851646200"><ele>0</ele><time>2013-03-09T07:38:31Z</time></trkpt>
 <trkpt lat="30.943772400" lon="120.851347800"><ele>1</ele><time>2013-03-09T07:38:35Z</time></trkpt>
 <trkpt lat="30.943802400" lon="120.851021200"><ele>1</ele><time>2013-03-09T07:38:39Z</time></trkpt>
 <trkpt lat="30.943832800" lon="120.850720800"><ele>1</ele><time>2013-03-09T07:38:43Z</time></trkpt>
 <trkpt lat="30.943869100" lon="120.850384900"><ele>2</ele><time>2013-03-09T07:38:47Z</time></trkpt>
 <trkpt lat="30.943907000" lon="120.850037000"><ele>2</ele><time>2013-03-09T07:38:51Z</time></trkpt>
 <trkpt lat="30.943934900" lon="120.849729500"><ele>2</ele><time>2013-03-09T07:38:55Z</time></trkpt>
 <trkpt lat="30.943979900" lon="120.849333700"><ele>2</ele><time>2013-03-09T07:38:59Z</time></trkpt>
 <trkpt lat="30.944019500" lon="120.848922900"><ele>2</ele><time>2013-03-09T07:39:03Z</time></trkpt>
 <trkpt lat="30.944065300" lon="120.848454900"><ele>2</ele><time>2013-03-09T07:39:07Z</time></trkpt>
 <trkpt lat="30.944112000" lon="120.847922400"><ele>2</ele><time>2013-03-09T07:39:11Z</time></trkpt>
 <trkpt lat="30.944153300" lon="120.847392400"><ele>2</ele><time>2013-03-09T07:39:15Z</time></trkpt>
 <trkpt lat="30.944211200" lon="120.846855300"><ele>2</ele><time>2013-03-09T07:39:19Z</time></trkpt>
 <trkpt lat="30.944281200" lon="120.846317400"><ele>2</ele><time>2013-03-09T07:39:23Z</time></trkpt>
 <trkpt lat="30.944339100" lon="120.845719900"><ele>2</ele><time>2013-03-09T07:39:27Z</time></trkpt>
 <trkpt lat="30.944429500" lon="120.845033300"><ele>2</ele><time>2013-03-09T07:39:31Z</time></trkpt>
 <trkpt lat="30.944506600" lon="120.844272000"><ele>1</ele><time>2013-03-09T07:39:35Z</time></trkpt>
 <trkpt lat="30.944577800" lon="120.843451600"><ele>1</ele><time>2013-03-09T07:39:39Z</time></trkpt>
 <trkpt lat="30.944661600" lon="120.842579100"><ele>0</ele><time>2013-03-09T07:39:43Z</time></trkpt>
 <trkpt lat="30.944750800" lon="120.841698700"><ele>0</ele><time>2013-03-09T07:39:47Z</time></trkpt>
 <trkpt lat="30.944831200" lon="120.840872000"><ele>0</ele><time>2013-03-09T07:39:51Z</time></trkpt>
 <trkpt lat="30.944907400" lon="120.840118700"><ele>0</ele><time>2013-03-09T07:39:55Z</time></trkpt>
 <trkpt lat="30.944979100" lon="120.839432400"><ele>0</ele><time>2013-03-09T07:39:59Z</time></trkpt>
 <trkpt lat="30.945023300" lon="120.838792900"><ele>-1</ele><time>2013-03-09T07:40:03Z</time></trkpt>
 <trkpt lat="30.945087400" lon="120.838107400"><ele>-1</ele><time>2013-03-09T07:40:07Z</time></trkpt>
 <trkpt lat="30.945165700" lon="120.837370800"><ele>-1</ele><time>2013-03-09T07:40:11Z</time></trkpt>
 <trkpt lat="30.945242400" lon="120.836605300"><ele>-2</ele><time>2013-03-09T07:40:15Z</time></trkpt>
 <trkpt lat="30.945329100" lon="120.835829100"><ele>-2</ele><time>2013-03-09T07:40:19Z</time></trkpt>
 <trkpt lat="30.945421600" lon="120.834992900"><ele>-3</ele><time>2013-03-09T07:40:23Z</time></trkpt>
 <trkpt lat="30.945499500" lon="120.834108300"><ele>-3</ele><time>2013-03-09T07:40:27Z</time></trkpt>
 <trkpt lat="30.945572900" lon="120.833219100"><ele>-3</ele><time>2013-03-09T07:40:31Z</time></trkpt>
 <trkpt lat="30.945668300" lon="120.832331600"><ele>-4</ele><time>2013-03-09T07:40:35Z</time></trkpt>
 <trkpt lat="30.945789100" lon="120.831451200"><ele>-4</ele><time>2013-03-09T07:40:39Z</time></trkpt>
 <trkpt lat="30.945946600" lon="120.830575800"><ele>-5</ele><time>2013-03-09T07:40:43Z</time></trkpt>
 <trkpt lat="30.946159900" lon="120.829703300"><ele>-5</ele><time>2013-03-09T07:40:47Z</time></trkpt>
 <trkpt lat="30.946402900" lon="120.828876600"><ele>-5</ele><time>2013-03-09T07:40:51Z</time></trkpt>
 <trkpt lat="30.946631200" lon="120.828232400"><ele>-5</ele><time>2013-03-09T07:40:55Z</time></trkpt>
 <trkpt lat="30.946799900" lon="120.827806200"><ele>-5</ele><time>2013-03-09T07:40:59Z</time></trkpt>
 <trkpt lat="30.946923700" lon="120.827531200"><ele>-5</ele><time>2013-03-09T07:41:03Z</time></trkpt>
 <trkpt lat="30.947015400" lon="120.827343300"><ele>-5</ele><time>2013-03-09T07:41:07Z</time></trkpt>
 <trkpt lat="30.947106600" lon="120.827154900"><ele>-5</ele><time>2013-03-09T07:41:11Z</time></trkpt>
 <trkpt lat="30.947210800" lon="120.826944500"><ele>-4</ele><time>2013-03-09T07:41:15Z</time></trkpt>
 <trkpt lat="30.947369900" lon="120.826597900"><ele>-4</ele><time>2013-03-09T07:41:19Z</time></trkpt>
 <trkpt lat="30.947620800" lon="120.826102800"><ele>-4</ele><time>2013-03-09T07:41:23Z</time></trkpt>
 <trkpt lat="30.947956200" lon="120.825511200"><ele>-3</ele><time>2013-03-09T07:41:27Z</time></trkpt>
 <trkpt lat="30.948360300" lon="120.824877000"><ele>-3</ele><time>2013-03-09T07:41:31Z</time></trkpt>
 <trkpt lat="30.948831200" lon="120.824229500"><ele>-3</ele><time>2013-03-09T07:41:35Z</time></trkpt>
 <trkpt lat="30.949365800" lon="120.823558700"><ele>-2</ele><time>2013-03-09T07:41:39Z</time></trkpt>
 <trkpt lat="30.949963300" lon="120.822875400"><ele>-2</ele><time>2013-03-09T07:41:43Z</time></trkpt>
 <trkpt lat="30.950600800" lon="120.822190800"><ele>-2</ele><time>2013-03-09T07:41:47Z</time></trkpt>
 <trkpt lat="30.951281200" lon="120.821513300"><ele>-2</ele><time>2013-03-09T07:41:51Z</time></trkpt>
 <trkpt lat="30.951974500" lon="120.820837400"><ele>-2</ele><time>2013-03-09T07:41:55Z</time></trkpt>
 <trkpt lat="30.952663300" lon="120.820162400"><ele>-2</ele><time>2013-03-09T07:41:59Z</time></trkpt>
 <trkpt lat="30.953332000" lon="120.819492400"><ele>-1</ele><time>2013-03-09T07:42:03Z</time></trkpt>
 <trkpt lat="30.953923300" lon="120.818902800"><ele>-1</ele><time>2013-03-09T07:42:07Z</time></trkpt>
 <trkpt lat="30.954407400" lon="120.818416200"><ele>-1</ele><time>2013-03-09T07:42:11Z</time></trkpt>
 <trkpt lat="30.954834500" lon="120.817990800"><ele>-1</ele><time>2013-03-09T07:42:15Z</time></trkpt>
 <trkpt lat="30.955252800" lon="120.817574100"><ele>-1</ele><time>2013-03-09T07:42:19Z</time></trkpt>
 <trkpt lat="30.955659100" lon="120.817174100"><ele>-1</ele><time>2013-03-09T07:42:23Z</time></trkpt>
 <trkpt lat="30.955971200" lon="120.816867000"><ele>-1</ele><time>2013-03-09T07:42:27Z</time></trkpt>
 <trkpt lat="30.956071600" lon="120.816767000"><ele>-1</ele><time>2013-03-09T07:42:31Z</time></trkpt>
 <trkpt lat="30.956301600" lon="120.816555300"><ele>0</ele><time>2013-03-09T07:42:35Z</time></trkpt>
 <trkpt lat="30.956674500" lon="120.816192400"><ele>0</ele><time>2013-03-09T07:42:39Z</time></trkpt>
 <trkpt lat="30.957120400" lon="120.815729900"><ele>0</ele><time>2013-03-09T07:42:43Z</time></trkpt>
 <trkpt lat="30.957615400" lon="120.815195300"><ele>0</ele><time>2013-03-09T07:42:47Z</time></trkpt>
 <trkpt lat="30.958188700" lon="120.814634100"><ele>0</ele><time>2013-03-09T07:42:51Z</time></trkpt>
 <trkpt lat="30.958818700" lon="120.814048700"><ele>0</ele><time>2013-03-09T07:42:55Z</time></trkpt>
 <trkpt lat="30.959452800" lon="120.813424100"><ele>0</ele><time>2013-03-09T07:42:59Z</time></trkpt>
 <trkpt lat="30.960085300" lon="120.812790800"><ele>0</ele><time>2013-03-09T07:43:03Z</time></trkpt>
 <trkpt lat="30.960712900" lon="120.812154500"><ele>0</ele><time>2013-03-09T07:43:07Z</time></trkpt>
 <trkpt lat="30.961323700" lon="120.811534100"><ele>0</ele><time>2013-03-09T07:43:11Z</time></trkpt>
 <trkpt lat="30.961912400" lon="120.810922000"><ele>0</ele><time>2013-03-09T07:43:15Z</time></trkpt>
 <trkpt lat="30.962469900" lon="120.810272400"><ele>0</ele><time>2013-03-09T07:43:19Z</time></trkpt>
 <trkpt lat="30.962969900" lon="120.809583300"><ele>0</ele><time>2013-03-09T07:43:23Z</time></trkpt>
 <trkpt lat="30.963406600" lon="120.808853200"><ele>0</ele><time>2013-03-09T07:43:27Z</time></trkpt>
 <trkpt lat="30.963779900" lon="120.808098700"><ele>0</ele><time>2013-03-09T07:43:31Z</time></trkpt>
 <trkpt lat="30.964082000" lon="120.807332000"><ele>0</ele><time>2013-03-09T07:43:35Z</time></trkpt>
 <trkpt lat="30.964292900" lon="120.806672000"><ele>0</ele><time>2013-03-09T07:43:39Z</time></trkpt>
 <trkpt lat="30.964398700" lon="120.806274100"><ele>0</ele><time>2013-03-09T07:43:43Z</time></trkpt>
 <trkpt lat="30.964427000" lon="120.806108300"><ele>0</ele><time>2013-03-09T07:43:47Z</time></trkpt>
 <trkpt lat="30.964419500" lon="120.806082400"><ele>0</ele><time>2013-03-09T07:43:51Z</time></trkpt>
 <trkpt lat="30.964419500" lon="120.806082400"><ele>0</ele><time>2013-03-09T07:43:55Z</time></trkpt>
 <trkpt lat="30.964422000" lon="120.806059100"><ele>0</ele><time>2013-03-09T07:43:59Z</time></trkpt>
 <trkpt lat="30.964476200" lon="120.805852000"><ele>0</ele><time>2013-03-09T07:44:03Z</time></trkpt>
 <trkpt lat="30.964557000" lon="120.805459900"><ele>0</ele><time>2013-03-09T07:44:07Z</time></trkpt>
 <trkpt lat="30.964637000" lon="120.804963300"><ele>0</ele><time>2013-03-09T07:44:11Z</time></trkpt>
 <trkpt lat="30.964702000" lon="120.804406600"><ele>0</ele><time>2013-03-09T07:44:15Z</time></trkpt>
 <trkpt lat="30.964738300" lon="120.803795800"><ele>0</ele><time>2013-03-09T07:44:19Z</time></trkpt>
 <trkpt lat="30.964746200" lon="120.803136200"><ele>0</ele><time>2013-03-09T07:44:23Z</time></trkpt>
 <trkpt lat="30.964728700" lon="120.802416600"><ele>0</ele><time>2013-03-09T07:44:27Z</time></trkpt>
 <trkpt lat="30.964704100" lon="120.801679900"><ele>0</ele><time>2013-03-09T07:44:31Z</time></trkpt>
 <trkpt lat="30.964672000" lon="120.800949100"><ele>0</ele><time>2013-03-09T07:44:35Z</time></trkpt>
 <trkpt lat="30.964640400" lon="120.800208700"><ele>0</ele><time>2013-03-09T07:44:39Z</time></trkpt>
 <trkpt lat="30.964630800" lon="120.799460300"><ele>0</ele><time>2013-03-09T07:44:43Z</time></trkpt>
 <trkpt lat="30.964610800" lon="120.798732000"><ele>0</ele><time>2013-03-09T07:44:47Z</time></trkpt>
 <trkpt lat="30.964589900" lon="120.798017800"><ele>0</ele><time>2013-03-09T07:44:51Z</time></trkpt>
 <trkpt lat="30.964567900" lon="120.797290800"><ele>1</ele><time>2013-03-09T07:44:55Z</time></trkpt>
 <trkpt lat="30.964554100" lon="120.796540300"><ele>1</ele><time>2013-03-09T07:44:59Z</time></trkpt>
 <trkpt lat="30.964544900" lon="120.795796200"><ele>1</ele><time>2013-03-09T07:45:03Z</time></trkpt>
 <trkpt lat="30.964527400" lon="120.795099100"><ele>1</ele><time>2013-03-09T07:45:07Z</time></trkpt>
 <trkpt lat="30.964509100" lon="120.794442400"><ele>1</ele><time>2013-03-09T07:45:11Z</time></trkpt>
 <trkpt lat="30.964496600" lon="120.793731200"><ele>2</ele><time>2013-03-09T07:45:15Z</time></trkpt>
 <trkpt lat="30.964484900" lon="120.792950800"><ele>2</ele><time>2013-03-09T07:45:19Z</time></trkpt>
 <trkpt lat="30.964468700" lon="120.792110300"><ele>2</ele><time>2013-03-09T07:45:23Z</time></trkpt>
 <trkpt lat="30.964453700" lon="120.791251200"><ele>2</ele><time>2013-03-09T07:45:27Z</time></trkpt>
 <trkpt lat="30.964429900" lon="120.790403300"><ele>2</ele><time>2013-03-09T07:45:31Z</time></trkpt>
 <trkpt lat="30.964410400" lon="120.789564500"><ele>3</ele><time>2013-03-09T07:45:35Z</time></trkpt>
 <trkpt lat="30.964394100" lon="120.788781200"><ele>3</ele><time>2013-03-09T07:45:39Z</time></trkpt>
 <trkpt lat="30.964378300" lon="120.788052400"><ele>3</ele><time>2013-03-09T07:45:43Z</time></trkpt>
 <trkpt lat="30.964360300" lon="120.787406200"><ele>2</ele><time>2013-03-09T07:45:47Z</time></trkpt>
 <trkpt lat="30.964352400" lon="120.786862400"><ele>2</ele><time>2013-03-09T07:45:51Z</time></trkpt>
 <trkpt lat="30.964365400" lon="120.786357400"><ele>2</ele><time>2013-03-09T07:45:55Z</time></trkpt>
 <trkpt lat="30.964352800" lon="120.785841200"><ele>1</ele><time>2013-03-09T07:45:59Z</time></trkpt>
 <trkpt lat="30.964322000" lon="120.785213700"><ele>1</ele><time>2013-03-09T07:46:03Z</time></trkpt>
 <trkpt lat="30.964304900" lon="120.784478700"><ele>1</ele><time>2013-03-09T07:46:07Z</time></trkpt>
 <trkpt lat="30.964293700" lon="120.783662400"><ele>1</ele><time>2013-03-09T07:46:11Z</time></trkpt>
 <trkpt lat="30.964274500" lon="120.782835800"><ele>1</ele><time>2013-03-09T07:46:15Z</time></trkpt>
 <trkpt lat="30.964256200" lon="120.782094100"><ele>1</ele><time>2013-03-09T07:46:19Z</time></trkpt>
 <trkpt lat="30.964250400" lon="120.781384500"><ele>2</ele><time>2013-03-09T07:46:23Z</time></trkpt>
 <trkpt lat="30.964326200" lon="120.780649900"><ele>2</ele><time>2013-03-09T07:46:27Z</time></trkpt>
 <trkpt lat="30.964495800" lon="120.779902000"><ele>2</ele><time>2013-03-09T07:46:31Z</time></trkpt>
 <trkpt lat="30.964742800" lon="120.779235700"><ele>2</ele><time>2013-03-09T07:46:35Z</time></trkpt>
 <trkpt lat="30.965055800" lon="120.778630000"><ele>3</ele><time>2013-03-09T07:46:39Z</time></trkpt>
 <trkpt lat="30.965425300" lon="120.778081200"><ele>3</ele><time>2013-03-09T07:46:43Z</time></trkpt>
 <trkpt lat="30.965854500" lon="120.777602800"><ele>4</ele><time>2013-03-09T07:46:47Z</time></trkpt>
 <trkpt lat="30.966339100" lon="120.777134900"><ele>4</ele><time>2013-03-09T07:46:51Z</time></trkpt>
 <trkpt lat="30.966861200" lon="120.776647900"><ele>5</ele><time>2013-03-09T07:46:55Z</time></trkpt>
 <trkpt lat="30.967303200" lon="120.776194900"><ele>6</ele><time>2013-03-09T07:46:59Z</time></trkpt>
 <trkpt lat="30.967682400" lon="120.775710300"><ele>6</ele><time>2013-03-09T07:47:03Z</time></trkpt>
 <trkpt lat="30.968022800" lon="120.775124100"><ele>7</ele><time>2013-03-09T07:47:07Z</time></trkpt>
 <trkpt lat="30.968298700" lon="120.774479500"><ele>8</ele><time>2013-03-09T07:47:11Z</time></trkpt>
 <trkpt lat="30.968488300" lon="120.773822000"><ele>8</ele><time>2013-03-09T07:47:15Z</time></trkpt>
 <trkpt lat="30.968602900" lon="120.773153700"><ele>9</ele><time>2013-03-09T07:47:19Z</time></trkpt>
 <trkpt lat="30.968687800" lon="120.772461200"><ele>9</ele><time>2013-03-09T07:47:23Z</time></trkpt>
 <trkpt lat="30.968775300" lon="120.771752900"><ele>9</ele><time>2013-03-09T07:47:27Z</time></trkpt>
 <trkpt lat="30.968842400" lon="120.771083700"><ele>10</ele><time>2013-03-09T07:47:31Z</time></trkpt>
 <trkpt lat="30.968910800" lon="120.770485800"><ele>10</ele><time>2013-03-09T07:47:35Z</time></trkpt>
 <trkpt lat="30.968989100" lon="120.769884100"><ele>11</ele><time>2013-03-09T07:47:39Z</time></trkpt>
 <trkpt lat="30.969056200" lon="120.769287400"><ele>11</ele><time>2013-03-09T07:47:43Z</time></trkpt>
 <trkpt lat="30.969102400" lon="120.768842000"><ele>12</ele><time>2013-03-09T07:47:47Z</time></trkpt>
 <trkpt lat="30.969138700" lon="120.768611200"><ele>12</ele><time>2013-03-09T07:47:51Z</time></trkpt>
 <trkpt lat="30.969154900" lon="120.768477400"><ele>12</ele><time>2013-03-09T07:47:55Z</time></trkpt>
 <trkpt lat="30.969158300" lon="120.768446200"><ele>12</ele><time>2013-03-09T07:47:59Z</time></trkpt>
 <trkpt lat="30.969158300" lon="120.768446200"><ele>12</ele><time>2013-03-09T07:48:03Z</time></trkpt>
 <trkpt lat="30.969155800" lon="120.768452400"><ele>12</ele><time>2013-03-09T07:48:07Z</time></trkpt>
 <trkpt lat="30.969159500" lon="120.768442000"><ele>12</ele><time>2013-03-09T07:48:11Z</time></trkpt>
 <trkpt lat="30.969186600" lon="120.768231600"><ele>12</ele><time>2013-03-09T07:48:15Z</time></trkpt>
 <trkpt lat="30.969233300" lon="120.767792000"><ele>12</ele><time>2013-03-09T07:48:19Z</time></trkpt>
 <trkpt lat="30.969329900" lon="120.767196600"><ele>11</ele><time>2013-03-09T07:48:23Z</time></trkpt>
 <trkpt lat="30.969500400" lon="120.766523200"><ele>11</ele><time>2013-03-09T07:48:27Z</time></trkpt>
 <trkpt lat="30.969731600" lon="120.765826600"><ele>10</ele><time>2013-03-09T07:48:31Z</time></trkpt>
 <trkpt lat="30.970048300" lon="120.765144500"><ele>9</ele><time>2013-03-09T07:48:35Z</time></trkpt>
 <trkpt lat="30.970412400" lon="120.764510800"><ele>8</ele><time>2013-03-09T07:48:39Z</time></trkpt>
 <trkpt lat="30.970811600" lon="120.763936600"><ele>7</ele><time>2013-03-09T07:48:43Z</time></trkpt>
 <trkpt lat="30.971264500" lon="120.763365300"><ele>7</ele><time>2013-03-09T07:48:47Z</time></trkpt>
 <trkpt lat="30.971738700" lon="120.762782000"><ele>6</ele><time>2013-03-09T07:48:51Z</time></trkpt>
 <trkpt lat="30.972236200" lon="120.762209900"><ele>5</ele><time>2013-03-09T07:48:55Z</time></trkpt>
 <trkpt lat="30.972716600" lon="120.761689100"><ele>4</ele><time>2013-03-09T07:48:59Z</time></trkpt>
 <trkpt lat="30.973176200" lon="120.761154500"><ele>3</ele><time>2013-03-09T07:49:03Z</time></trkpt>
 <trkpt lat="30.973627900" lon="120.760607900"><ele>2</ele><time>2013-03-09T07:49:07Z</time></trkpt>
 <trkpt lat="30.974075700" lon="120.760067400"><ele>1</ele><time>2013-03-09T07:49:11Z</time></trkpt>
 <trkpt lat="30.974538700" lon="120.759538300"><ele>0</ele><time>2013-03-09T07:49:15Z</time></trkpt>
 <trkpt lat="30.974998300" lon="120.759034500"><ele>-1</ele><time>2013-03-09T07:49:19Z</time></trkpt>
 <trkpt lat="30.975395800" lon="120.758578700"><ele>-2</ele><time>2013-03-09T07:49:23Z</time></trkpt>
 <trkpt lat="30.975751600" lon="120.758180800"><ele>-3</ele><time>2013-03-09T07:49:27Z</time></trkpt>
 <trkpt lat="30.976062000" lon="120.757874100"><ele>-3</ele><time>2013-03-09T07:49:31Z</time></trkpt>
 <trkpt lat="30.976303300" lon="120.757639900"><ele>-4</ele><time>2013-03-09T07:49:35Z</time></trkpt>
 <trkpt lat="30.976397800" lon="120.757528300"><ele>-5</ele><time>2013-03-09T07:49:39Z</time></trkpt>
 <trkpt lat="30.976421600" lon="120.757490800"><ele>-5</ele><time>2013-03-09T07:49:43Z</time></trkpt>
 <trkpt lat="30.976414900" lon="120.757488700"><ele>-6</ele><time>2013-03-09T07:49:47Z</time></trkpt>
 <trkpt lat="30.976414900" lon="120.757488700"><ele>-6</ele><time>2013-03-09T07:49:51Z</time></trkpt>
 <trkpt lat="30.976409100" lon="120.757484900"><ele>-7</ele><time>2013-03-09T07:49:55Z</time></trkpt>
 <trkpt lat="30.976409100" lon="120.757484900"><ele>-7</ele><time>2013-03-09T07:49:59Z</time></trkpt>
 <trkpt lat="30.976413300" lon="120.757475800"><ele>-6</ele><time>2013-03-09T07:50:03Z</time></trkpt>
 <trkpt lat="30.976538700" lon="120.757357400"><ele>-6</ele><time>2013-03-09T07:50:07Z</time></trkpt>
 <trkpt lat="30.976800800" lon="120.757077800"><ele>-6</ele><time>2013-03-09T07:50:11Z</time></trkpt>
 <trkpt lat="30.977144100" lon="120.756708300"><ele>-5</ele><time>2013-03-09T07:50:15Z</time></trkpt>
 <trkpt lat="30.977550800" lon="120.756365300"><ele>-4</ele><time>2013-03-09T07:50:19Z</time></trkpt>
 <trkpt lat="30.977950800" lon="120.756059500"><ele>-4</ele><time>2013-03-09T07:50:23Z</time></trkpt>
 <trkpt lat="30.978284900" lon="120.755817900"><ele>-3</ele><time>2013-03-09T07:50:27Z</time></trkpt>
 <trkpt lat="30.978618300" lon="120.755586200"><ele>-2</ele><time>2013-03-09T07:50:31Z</time></trkpt>
 <trkpt lat="30.978963300" lon="120.755334500"><ele>-1</ele><time>2013-03-09T07:50:35Z</time></trkpt>
 <trkpt lat="30.979297400" lon="120.755070400"><ele>0</ele><time>2013-03-09T07:50:39Z</time></trkpt>
 <trkpt lat="30.979596600" lon="120.754834500"><ele>0</ele><time>2013-03-09T07:50:43Z</time></trkpt>
 <trkpt lat="30.979887400" lon="120.754571600"><ele>1</ele><time>2013-03-09T07:50:47Z</time></trkpt>
 <trkpt lat="30.980240400" lon="120.754237400"><ele>2</ele><time>2013-03-09T07:50:51Z</time></trkpt>
 <trkpt lat="30.980575800" lon="120.753925300"><ele>2</ele><time>2013-03-09T07:50:55Z</time></trkpt>
 <trkpt lat="30.980883300" lon="120.753601200"><ele>3</ele><time>2013-03-09T07:50:59Z</time></trkpt>
 <trkpt lat="30.981230300" lon="120.753256600"><ele>4</ele><time>2013-03-09T07:51:03Z</time></trkpt>
 <trkpt lat="30.981559100" lon="120.752907900"><ele>4</ele><time>2013-03-09T07:51:07Z</time></trkpt>
 <trkpt lat="30.981744500" lon="120.752714500"><ele>5</ele><time>2013-03-09T07:51:11Z</time></trkpt>
 <trkpt lat="30.981824900" lon="120.752598300"><ele>5</ele><time>2013-03-09T07:51:15Z</time></trkpt>
 <trkpt lat="30.981911200" lon="120.752481200"><ele>6</ele><time>2013-03-09T07:51:19Z</time></trkpt>
 <trkpt lat="30.981961200" lon="120.752409100"><ele>6</ele><time>2013-03-09T07:51:23Z</time></trkpt>
 <trkpt lat="30.981970300" lon="120.752394500"><ele>6</ele><time>2013-03-09T07:51:27Z</time></trkpt>
 <trkpt lat="30.981963700" lon="120.752399500"><ele>6</ele><time>2013-03-09T07:51:31Z</time></trkpt>
 <trkpt lat="30.981962800" lon="120.752406600"><ele>7</ele><time>2013-03-09T07:51:35Z</time></trkpt>
 <trkpt lat="30.981962800" lon="120.752406600"><ele>7</ele><time>2013-03-09T07:51:39Z</time></trkpt>
 <trkpt lat="30.981962800" lon="120.752406600"><ele>7</ele><time>2013-03-09T07:51:43Z</time></trkpt>
 <trkpt lat="30.981962800" lon="120.752406600"><ele>7</ele><time>2013-03-09T07:51:47Z</time></trkpt>
 <trkpt lat="30.981967800" lon="120.752403700"><ele>7</ele><time>2013-03-09T07:51:51Z</time></trkpt>
 <trkpt lat="30.981979900" lon="120.752398700"><ele>7</ele><time>2013-03-09T07:51:55Z</time></trkpt>
 <trkpt lat="30.981992800" lon="120.752398700"><ele>7</ele><time>2013-03-09T07:51:59Z</time></trkpt>
 <trkpt lat="30.982007400" lon="120.752400000"><ele>7</ele><time>2013-03-09T07:52:03Z</time></trkpt>
 <trkpt lat="30.982015400" lon="120.752400000"><ele>7</ele><time>2013-03-09T07:52:07Z</time></trkpt>
 <trkpt lat="30.982021200" lon="120.752402000"><ele>7</ele><time>2013-03-09T07:52:11Z</time></trkpt>
 <trkpt lat="30.982034900" lon="120.752400400"><ele>7</ele><time>2013-03-09T07:52:15Z</time></trkpt>
 <trkpt lat="30.982041200" lon="120.752401600"><ele>7</ele><time>2013-03-09T07:52:19Z</time></trkpt>
 <trkpt lat="30.982060000" lon="120.752390000"><ele>7</ele><time>2013-03-09T07:52:23Z</time></trkpt>
 <trkpt lat="30.982201200" lon="120.752189500"><ele>7</ele><time>2013-03-09T07:52:27Z</time></trkpt>
 <trkpt lat="30.982435300" lon="120.751784100"><ele>7</ele><time>2013-03-09T07:52:31Z</time></trkpt>
 <trkpt lat="30.982698700" lon="120.751224500"><ele>7</ele><time>2013-03-09T07:52:35Z</time></trkpt>
 <trkpt lat="30.982980300" lon="120.750601600"><ele>7</ele><time>2013-03-09T07:52:39Z</time></trkpt>
 <trkpt lat="30.983260800" lon="120.749969500"><ele>7</ele><time>2013-03-09T07:52:43Z</time></trkpt>
 <trkpt lat="30.983556600" lon="120.749317400"><ele>6</ele><time>2013-03-09T07:52:47Z</time></trkpt>
 <trkpt lat="30.983873300" lon="120.748638700"><ele>6</ele><time>2013-03-09T07:52:51Z</time></trkpt>
 <trkpt lat="30.984201200" lon="120.747996200"><ele>6</ele><time>2013-03-09T07:52:55Z</time></trkpt>
 <trkpt lat="30.984552000" lon="120.747380400"><ele>6</ele><time>2013-03-09T07:52:59Z</time></trkpt>
 <trkpt lat="30.984948700" lon="120.746780800"><ele>5</ele><time>2013-03-09T07:53:03Z</time></trkpt>
 <trkpt lat="30.985372400" lon="120.746185800"><ele>5</ele><time>2013-03-09T07:53:07Z</time></trkpt>
 <trkpt lat="30.985807000" lon="120.745581600"><ele>4</ele><time>2013-03-09T07:53:11Z</time></trkpt>
 <trkpt lat="30.986265400" lon="120.745002400"><ele>3</ele><time>2013-03-09T07:53:15Z</time></trkpt>
 <trkpt lat="30.986744500" lon="120.744434500"><ele>3</ele><time>2013-03-09T07:53:19Z</time></trkpt>
 <trkpt lat="30.987244900" lon="120.743850800"><ele>2</ele><time>2013-03-09T07:53:23Z</time></trkpt>
 <trkpt lat="30.987750800" lon="120.743248700"><ele>1</ele><time>2013-03-09T07:53:27Z</time></trkpt>
 <trkpt lat="30.988242800" lon="120.742641600"><ele>1</ele><time>2013-03-09T07:53:31Z</time></trkpt>
 <trkpt lat="30.988724900" lon="120.742034900"><ele>0</ele><time>2013-03-09T07:53:35Z</time></trkpt>
 <trkpt lat="30.989244100" lon="120.741413300"><ele>0</ele><time>2013-03-09T07:53:39Z</time></trkpt>
 <trkpt lat="30.989793700" lon="120.740753700"><ele>0</ele><time>2013-03-09T07:53:43Z</time></trkpt>
 <trkpt lat="30.990349500" lon="120.740069100"><ele>-1</ele><time>2013-03-09T07:53:47Z</time></trkpt>
 <trkpt lat="30.990922500" lon="120.739380400"><ele>-1</ele><time>2013-03-09T07:53:51Z</time></trkpt>
 <trkpt lat="30.991501600" lon="120.738684100"><ele>-2</ele><time>2013-03-09T07:53:55Z</time></trkpt>
 <trkpt lat="30.992097400" lon="120.737993300"><ele>-2</ele><time>2013-03-09T07:53:59Z</time></trkpt>
 <trkpt lat="30.992687000" lon="120.737287800"><ele>-2</ele><time>2013-03-09T07:54:03Z</time></trkpt>
 <trkpt lat="30.993276600" lon="120.736585800"><ele>-2</ele><time>2013-03-09T07:54:07Z</time></trkpt>
 <trkpt lat="30.993868300" lon="120.735923700"><ele>-2</ele><time>2013-03-09T07:54:11Z</time></trkpt>
 <trkpt lat="30.994458700" lon="120.735368700"><ele>-2</ele><time>2013-03-09T07:54:15Z</time></trkpt>
 <trkpt lat="30.995035800" lon="120.734926200"><ele>-1</ele><time>2013-03-09T07:54:19Z</time></trkpt>
 <trkpt lat="30.995607800" lon="120.734548700"><ele>-1</ele><time>2013-03-09T07:54:23Z</time></trkpt>
 <trkpt lat="30.996164900" lon="120.734219500"><ele>0</ele><time>2013-03-09T07:54:27Z</time></trkpt>
 <trkpt lat="30.996755800" lon="120.733947400"><ele>0</ele><time>2013-03-09T07:54:31Z</time></trkpt>
 <trkpt lat="30.997440400" lon="120.733750300"><ele>1</ele><time>2013-03-09T07:54:35Z</time></trkpt>
 <trkpt lat="30.998174900" lon="120.733611600"><ele>1</ele><time>2013-03-09T07:54:39Z</time></trkpt>
 <trkpt lat="30.998940300" lon="120.733523700"><ele>2</ele><time>2013-03-09T07:54:43Z</time></trkpt>
 <trkpt lat="30.999719500" lon="120.733449900"><ele>3</ele><time>2013-03-09T07:54:47Z</time></trkpt>
 <trkpt lat="31.000491200" lon="120.733377400"><ele>4</ele><time>2013-03-09T07:54:51Z</time></trkpt>
 <trkpt lat="31.001267800" lon="120.733292400"><ele>4</ele><time>2013-03-09T07:54:55Z</time></trkpt>
 <trkpt lat="31.002043700" lon="120.733213700"><ele>5</ele><time>2013-03-09T07:54:59Z</time></trkpt>
 <trkpt lat="31.002829900" lon="120.733131600"><ele>5</ele><time>2013-03-09T07:55:03Z</time></trkpt>
 <trkpt lat="31.003616600" lon="120.733047400"><ele>6</ele><time>2013-03-09T07:55:07Z</time></trkpt>
 <trkpt lat="31.004385400" lon="120.732965800"><ele>6</ele><time>2013-03-09T07:55:11Z</time></trkpt>
 <trkpt lat="31.005127000" lon="120.732891600"><ele>6</ele><time>2013-03-09T07:55:15Z</time></trkpt>
 <trkpt lat="31.005806200" lon="120.732830800"><ele>6</ele><time>2013-03-09T07:55:19Z</time></trkpt>
 <trkpt lat="31.006417000" lon="120.732764500"><ele>6</ele><time>2013-03-09T07:55:23Z</time></trkpt>
 <trkpt lat="31.006969100" lon="120.732683300"><ele>6</ele><time>2013-03-09T07:55:27Z</time></trkpt>
 <trkpt lat="31.007553700" lon="120.732583700"><ele>6</ele><time>2013-03-09T07:55:31Z</time></trkpt>
 <trkpt lat="31.008210800" lon="120.732510700"><ele>5</ele><time>2013-03-09T07:55:35Z</time></trkpt>
 <trkpt lat="31.008947400" lon="120.732406600"><ele>4</ele><time>2013-03-09T07:55:39Z</time></trkpt>
 <trkpt lat="31.009732800" lon="120.732232000"><ele>3</ele><time>2013-03-09T07:55:43Z</time></trkpt>
 <trkpt lat="31.010525700" lon="120.732009900"><ele>3</ele><time>2013-03-09T07:55:47Z</time></trkpt>
 <trkpt lat="31.011331200" lon="120.731789100"><ele>2</ele><time>2013-03-09T07:55:51Z</time></trkpt>
 <trkpt lat="31.012153700" lon="120.731563300"><ele>1</ele><time>2013-03-09T07:55:55Z</time></trkpt>
 <trkpt lat="31.012992000" lon="120.731326600"><ele>1</ele><time>2013-03-09T07:55:59Z</time></trkpt>
 <trkpt lat="31.013835400" lon="120.731089500"><ele>0</ele><time>2013-03-09T07:56:03Z</time></trkpt>
 <trkpt lat="31.014675400" lon="120.730840300"><ele>0</ele><time>2013-03-09T07:56:07Z</time></trkpt>
 <trkpt lat="31.015519500" lon="120.730579100"><ele>0</ele><time>2013-03-09T07:56:11Z</time></trkpt>
 <trkpt lat="31.016389900" lon="120.730344100"><ele>-1</ele><time>2013-03-09T07:56:15Z</time></trkpt>
 <trkpt lat="31.017265400" lon="120.730107000"><ele>-2</ele><time>2013-03-09T07:56:19Z</time></trkpt>
 <trkpt lat="31.018129900" lon="120.729874900"><ele>-2</ele><time>2013-03-09T07:56:23Z</time></trkpt>
 <trkpt lat="31.018971200" lon="120.729654500"><ele>-2</ele><time>2013-03-09T07:56:27Z</time></trkpt>
 <trkpt lat="31.019743700" lon="120.729454100"><ele>-3</ele><time>2013-03-09T07:56:31Z</time></trkpt>
 <trkpt lat="31.020383700" lon="120.729282000"><ele>-3</ele><time>2013-03-09T07:56:35Z</time></trkpt>
 <trkpt lat="31.020874100" lon="120.729156200"><ele>-3</ele><time>2013-03-09T07:56:39Z</time></trkpt>
 <trkpt lat="31.021231200" lon="120.729059100"><ele>-3</ele><time>2013-03-09T07:56:43Z</time></trkpt>
 <trkpt lat="31.021605000" lon="120.728963300"><ele>-3</ele><time>2013-03-09T07:56:47Z</time></trkpt>
 <trkpt lat="31.022069100" lon="120.728843700"><ele>-2</ele><time>2013-03-09T07:56:51Z</time></trkpt>
 <trkpt lat="31.022592000" lon="120.728715300"><ele>-2</ele><time>2013-03-09T07:56:55Z</time></trkpt>
 <trkpt lat="31.023151600" lon="120.728589500"><ele>-2</ele><time>2013-03-09T07:56:59Z</time></trkpt>
 <trkpt lat="31.023768700" lon="120.728464100"><ele>-1</ele><time>2013-03-09T07:57:03Z</time></trkpt>
 <trkpt lat="31.024441600" lon="120.728361200"><ele>-1</ele><time>2013-03-09T07:57:07Z</time></trkpt>
 <trkpt lat="31.025175800" lon="120.728267000"><ele>0</ele><time>2013-03-09T07:57:11Z</time></trkpt>
 <trkpt lat="31.025969100" lon="120.728193300"><ele>0</ele><time>2013-03-09T07:57:15Z</time></trkpt>
 <trkpt lat="31.026815700" lon="120.728156600"><ele>0</ele><time>2013-03-09T07:57:19Z</time></trkpt>
 <trkpt lat="31.027702400" lon="120.728142800"><ele>1</ele><time>2013-03-09T07:57:23Z</time></trkpt>
 <trkpt lat="31.028617000" lon="120.728141600"><ele>2</ele><time>2013-03-09T07:57:27Z</time></trkpt>
 <trkpt lat="31.029496200" lon="120.728140800"><ele>2</ele><time>2013-03-09T07:57:31Z</time></trkpt>
 <trkpt lat="31.030303200" lon="120.728151600"><ele>3</ele><time>2013-03-09T07:57:35Z</time></trkpt>
 <trkpt lat="31.031052000" lon="120.728159100"><ele>4</ele><time>2013-03-09T07:57:39Z</time></trkpt>
 <trkpt lat="31.031814100" lon="120.728164500"><ele>4</ele><time>2013-03-09T07:57:43Z</time></trkpt>
 <trkpt lat="31.032647400" lon="120.728153300"><ele>4</ele><time>2013-03-09T07:57:47Z</time></trkpt>
 <trkpt lat="31.033464500" lon="120.728168700"><ele>5</ele><time>2013-03-09T07:57:51Z</time></trkpt>
 <trkpt lat="31.034235800" lon="120.728194100"><ele>5</ele><time>2013-03-09T07:57:55Z</time></trkpt>
 <trkpt lat="31.035010700" lon="120.728200300"><ele>5</ele><time>2013-03-09T07:57:59Z</time></trkpt>
 <trkpt lat="31.035811200" lon="120.728188300"><ele>5</ele><time>2013-03-09T07:58:03Z</time></trkpt>
 <trkpt lat="31.036641600" lon="120.728186600"><ele>6</ele><time>2013-03-09T07:58:07Z</time></trkpt>
 <trkpt lat="31.037498700" lon="120.728188700"><ele>6</ele><time>2013-03-09T07:58:11Z</time></trkpt>
 <trkpt lat="31.038360800" lon="120.728196200"><ele>6</ele><time>2013-03-09T07:58:15Z</time></trkpt>
 <trkpt lat="31.039218700" lon="120.728200800"><ele>5</ele><time>2013-03-09T07:58:19Z</time></trkpt>
 <trkpt lat="31.040070800" lon="120.728209900"><ele>5</ele><time>2013-03-09T07:58:23Z</time></trkpt>
 <trkpt lat="31.040901200" lon="120.728217400"><ele>5</ele><time>2013-03-09T07:58:27Z</time></trkpt>
 <trkpt lat="31.041726600" lon="120.728221600"><ele>5</ele><time>2013-03-09T07:58:31Z</time></trkpt>
 <trkpt lat="31.042551600" lon="120.728200300"><ele>4</ele><time>2013-03-09T07:58:35Z</time></trkpt>
 <trkpt lat="31.043381600" lon="120.728121200"><ele>4</ele><time>2013-03-09T07:58:39Z</time></trkpt>
 <trkpt lat="31.044186200" lon="120.727978700"><ele>4</ele><time>2013-03-09T07:58:43Z</time></trkpt>
 <trkpt lat="31.044972000" lon="120.727775800"><ele>4</ele><time>2013-03-09T07:58:47Z</time></trkpt>
 <trkpt lat="31.045758300" lon="120.727489500"><ele>4</ele><time>2013-03-09T07:58:51Z</time></trkpt>
 <trkpt lat="31.046519900" lon="120.727127400"><ele>4</ele><time>2013-03-09T07:58:55Z</time></trkpt>
 <trkpt lat="31.047257000" lon="120.726720800"><ele>4</ele><time>2013-03-09T07:58:59Z</time></trkpt>
 <trkpt lat="31.047964500" lon="120.726267400"><ele>5</ele><time>2013-03-09T07:59:03Z</time></trkpt>
 <trkpt lat="31.048645800" lon="120.725758700"><ele>5</ele><time>2013-03-09T07:59:07Z</time></trkpt>
 <trkpt lat="31.049329900" lon="120.725175400"><ele>5</ele><time>2013-03-09T07:59:11Z</time></trkpt>
 <trkpt lat="31.050010800" lon="120.724550300"><ele>6</ele><time>2013-03-09T07:59:15Z</time></trkpt>
 <trkpt lat="31.050722000" lon="120.723890300"><ele>6</ele><time>2013-03-09T07:59:19Z</time></trkpt>
 <trkpt lat="31.051463300" lon="120.723205800"><ele>6</ele><time>2013-03-09T07:59:23Z</time></trkpt>
 <trkpt lat="31.052204900" lon="120.722522400"><ele>7</ele><time>2013-03-09T07:59:27Z</time></trkpt>
 <trkpt lat="31.052941600" lon="120.721914900"><ele>7</ele><time>2013-03-09T07:59:31Z</time></trkpt>
 <trkpt lat="31.053682900" lon="120.721392000"><ele>8</ele><time>2013-03-09T07:59:35Z</time></trkpt>
 <trkpt lat="31.054443700" lon="120.720933700"><ele>8</ele><time>2013-03-09T07:59:39Z</time></trkpt>
 <trkpt lat="31.055261600" lon="120.720557000"><ele>9</ele><time>2013-03-09T07:59:43Z</time></trkpt>
 <trkpt lat="31.056124500" lon="120.720237900"><ele>9</ele><time>2013-03-09T07:59:47Z</time></trkpt>
 <trkpt lat="31.057002400" lon="120.719997900"><ele>10</ele><time>2013-03-09T07:59:51Z</time></trkpt>
 <trkpt lat="31.057859100" lon="120.719825300"><ele>10</ele><time>2013-03-09T07:59:55Z</time></trkpt>
 <trkpt lat="31.058667800" lon="120.719707900"><ele>10</ele><time>2013-03-09T07:59:59Z</time></trkpt>
 <trkpt lat="31.059417000" lon="120.719674900"><ele>11</ele><time>2013-03-09T08:00:03Z</time></trkpt>
 <trkpt lat="31.060115800" lon="120.719721200"><ele>11</ele><time>2013-03-09T08:00:07Z</time></trkpt>
 <trkpt lat="31.060740800" lon="120.719754500"><ele>11</ele><time>2013-03-09T08:00:11Z</time></trkpt>
 <trkpt lat="31.061297400" lon="120.719783700"><ele>11</ele><time>2013-03-09T08:00:15Z</time></trkpt>
 <trkpt lat="31.061734900" lon="120.719806600"><ele>10</ele><time>2013-03-09T08:00:19Z</time></trkpt>
 <trkpt lat="31.061914100" lon="120.719791200"><ele>10</ele><time>2013-03-09T08:00:23Z</time></trkpt>
 <trkpt lat="31.061933300" lon="120.719672000"><ele>10</ele><time>2013-03-09T08:00:27Z</time></trkpt>
 <trkpt lat="31.061857000" lon="120.719250800"><ele>10</ele><time>2013-03-09T08:00:31Z</time></trkpt>
 <trkpt lat="31.061812000" lon="120.718632000"><ele>9</ele><time>2013-03-09T08:00:35Z</time></trkpt>
 <trkpt lat="31.061776600" lon="120.717949100"><ele>9</ele><time>2013-03-09T08:00:39Z</time></trkpt>
 <trkpt lat="31.061759500" lon="120.717212800"><ele>9</ele><time>2013-03-09T08:00:43Z</time></trkpt>
 <trkpt lat="31.061752000" lon="120.716477400"><ele>9</ele><time>2013-03-09T08:00:47Z</time></trkpt>
 <trkpt lat="31.061746200" lon="120.715748300"><ele>8</ele><time>2013-03-09T08:00:51Z</time></trkpt>
 <trkpt lat="31.061731200" lon="120.715050700"><ele>8</ele><time>2013-03-09T08:00:55Z</time></trkpt>
 <trkpt lat="31.061714500" lon="120.714361600"><ele>8</ele><time>2013-03-09T08:00:59Z</time></trkpt>
 <trkpt lat="31.061697800" lon="120.713675800"><ele>8</ele><time>2013-03-09T08:01:03Z</time></trkpt>
 <trkpt lat="31.061678300" lon="120.712956200"><ele>8</ele><time>2013-03-09T08:01:07Z</time></trkpt>
 <trkpt lat="31.061659900" lon="120.712202400"><ele>8</ele><time>2013-03-09T08:01:11Z</time></trkpt>
 <trkpt lat="31.061648300" lon="120.711464500"><ele>8</ele><time>2013-03-09T08:01:15Z</time></trkpt>
 <trkpt lat="31.061633700" lon="120.710770400"><ele>8</ele><time>2013-03-09T08:01:19Z</time></trkpt>
 <trkpt lat="31.061630800" lon="120.710083700"><ele>8</ele><time>2013-03-09T08:01:23Z</time></trkpt>
 <trkpt lat="31.061627000" lon="120.709369100"><ele>9</ele><time>2013-03-09T08:01:27Z</time></trkpt>
 <trkpt lat="31.061615700" lon="120.708652000"><ele>9</ele><time>2013-03-09T08:01:31Z</time></trkpt>
 <trkpt lat="31.061621200" lon="120.707916600"><ele>10</ele><time>2013-03-09T08:01:35Z</time></trkpt>
 <trkpt lat="31.061650300" lon="120.707200800"><ele>11</ele><time>2013-03-09T08:01:39Z</time></trkpt>
 <trkpt lat="31.061692900" lon="120.706460300"><ele>11</ele><time>2013-03-09T08:01:43Z</time></trkpt>
 <trkpt lat="31.061761600" lon="120.705694900"><ele>12</ele><time>2013-03-09T08:01:47Z</time></trkpt>
 <trkpt lat="31.061856200" lon="120.704926200"><ele>13</ele><time>2013-03-09T08:01:51Z</time></trkpt>
 <trkpt lat="31.061946200" lon="120.704159900"><ele>15</ele><time>2013-03-09T08:01:55Z</time></trkpt>
 <trkpt lat="31.062036200" lon="120.703414500"><ele>16</ele><time>2013-03-09T08:01:59Z</time></trkpt>
 <trkpt lat="31.062129500" lon="120.702714500"><ele>17</ele><time>2013-03-09T08:02:03Z</time></trkpt>
 <trkpt lat="31.062222000" lon="120.702041600"><ele>18</ele><time>2013-03-09T08:02:07Z</time></trkpt>
 <trkpt lat="31.062304900" lon="120.701419100"><ele>19</ele><time>2013-03-09T08:02:11Z</time></trkpt>
 <trkpt lat="31.062387000" lon="120.700771600"><ele>20</ele><time>2013-03-09T08:02:15Z</time></trkpt>
 <trkpt lat="31.062450000" lon="120.700133200"><ele>21</ele><time>2013-03-09T08:02:19Z</time></trkpt>
 <trkpt lat="31.062499500" lon="120.699502800"><ele>22</ele><time>2013-03-09T08:02:23Z</time></trkpt>
 <trkpt lat="31.062540400" lon="120.698856600"><ele>22</ele><time>2013-03-09T08:02:27Z</time></trkpt>
 <trkpt lat="31.062562800" lon="120.698204100"><ele>23</ele><time>2013-03-09T08:02:31Z</time></trkpt>
 <trkpt lat="31.062567000" lon="120.697524900"><ele>23</ele><time>2013-03-09T08:02:35Z</time></trkpt>
 <trkpt lat="31.062558700" lon="120.696796200"><ele>23</ele><time>2013-03-09T08:02:39Z</time></trkpt>
 <trkpt lat="31.062542000" lon="120.696029100"><ele>22</ele><time>2013-03-09T08:02:43Z</time></trkpt>
 <trkpt lat="31.062502400" lon="120.695214900"><ele>22</ele><time>2013-03-09T08:02:47Z</time></trkpt>
 <trkpt lat="31.062452000" lon="120.694384100"><ele>21</ele><time>2013-03-09T08:02:51Z</time></trkpt>
 <trkpt lat="31.062392800" lon="120.693546600"><ele>20</ele><time>2013-03-09T08:02:55Z</time></trkpt>
 <trkpt lat="31.062327000" lon="120.692690300"><ele>19</ele><time>2013-03-09T08:02:59Z</time></trkpt>
 <trkpt lat="31.062257800" lon="120.691832400"><ele>18</ele><time>2013-03-09T08:03:03Z</time></trkpt>
 <trkpt lat="31.062191600" lon="120.690983300"><ele>16</ele><time>2013-03-09T08:03:07Z</time></trkpt>
 <trkpt lat="31.062114900" lon="120.690157400"><ele>15</ele><time>2013-03-09T08:03:11Z</time></trkpt>
 <trkpt lat="31.062031200" lon="120.689334900"><ele>14</ele><time>2013-03-09T08:03:15Z</time></trkpt>
 <trkpt lat="31.061942400" lon="120.688430300"><ele>13</ele><time>2013-03-09T08:03:19Z</time></trkpt>
 <trkpt lat="31.061890800" lon="120.687434100"><ele>13</ele><time>2013-03-09T08:03:23Z</time></trkpt>
 <trkpt lat="31.061882400" lon="120.686481600"><ele>12</ele><time>2013-03-09T08:03:27Z</time></trkpt>
 <trkpt lat="31.061939100" lon="120.685530800"><ele>12</ele><time>2013-03-09T08:03:31Z</time></trkpt>
 <trkpt lat="31.062057900" lon="120.684636600"><ele>12</ele><time>2013-03-09T08:03:35Z</time></trkpt>
 <trkpt lat="31.062249100" lon="120.683807400"><ele>12</ele><time>2013-03-09T08:03:39Z</time></trkpt>
 <trkpt lat="31.062502400" lon="120.683024900"><ele>12</ele><time>2013-03-09T08:03:43Z</time></trkpt>
 <trkpt lat="31.062782400" lon="120.682331200"><ele>13</ele><time>2013-03-09T08:03:47Z</time></trkpt>
 <trkpt lat="31.063079500" lon="120.681727000"><ele>13</ele><time>2013-03-09T08:03:51Z</time></trkpt>
 <trkpt lat="31.063414500" lon="120.681158200"><ele>14</ele><time>2013-03-09T08:03:55Z</time></trkpt>
 <trkpt lat="31.063777000" lon="120.680622400"><ele>15</ele><time>2013-03-09T08:03:59Z</time></trkpt>
 <trkpt lat="31.064146600" lon="120.680094900"><ele>15</ele><time>2013-03-09T08:04:03Z</time></trkpt>
 <trkpt lat="31.064489500" lon="120.679596200"><ele>16</ele><time>2013-03-09T08:04:07Z</time></trkpt>
 <trkpt lat="31.064799900" lon="120.679164900"><ele>16</ele><time>2013-03-09T08:04:11Z</time></trkpt>
 <trkpt lat="31.065173700" lon="120.678675300"><ele>16</ele><time>2013-03-09T08:04:15Z</time></trkpt>
 <trkpt lat="31.065618700" lon="120.678079900"><ele>16</ele><time>2013-03-09T08:04:19Z</time></trkpt>
 <trkpt lat="31.066072400" lon="120.677446600"><ele>16</ele><time>2013-03-09T08:04:23Z</time></trkpt>
 <trkpt lat="31.066491200" lon="120.676863300"><ele>15</ele><time>2013-03-09T08:04:27Z</time></trkpt>
 <trkpt lat="31.066839500" lon="120.676414900"><ele>14</ele><time>2013-03-09T08:04:31Z</time></trkpt>
 <trkpt lat="31.067122000" lon="120.676054500"><ele>13</ele><time>2013-03-09T08:04:35Z</time></trkpt>
 <trkpt lat="31.067377900" lon="120.675729900"><ele>12</ele><time>2013-03-09T08:04:39Z</time></trkpt>
 <trkpt lat="31.067624900" lon="120.675409100"><ele>11</ele><time>2013-03-09T08:04:43Z</time></trkpt>
 <trkpt lat="31.067852000" lon="120.675082800"><ele>11</ele><time>2013-03-09T08:04:47Z</time></trkpt>
 <trkpt lat="31.068035800" lon="120.674804100"><ele>10</ele><time>2013-03-09T08:04:51Z</time></trkpt>
 <trkpt lat="31.068149100" lon="120.674610800"><ele>9</ele><time>2013-03-09T08:04:55Z</time></trkpt>
 <trkpt lat="31.068281200" lon="120.674364900"><ele>8</ele><time>2013-03-09T08:04:59Z</time></trkpt>
 <trkpt lat="31.068450300" lon="120.674048700"><ele>6</ele><time>2013-03-09T08:05:03Z</time></trkpt>
 <trkpt lat="31.068619100" lon="120.673734100"><ele>5</ele><time>2013-03-09T08:05:07Z</time></trkpt>
 <trkpt lat="31.068766200" lon="120.673480400"><ele>4</ele><time>2013-03-09T08:05:11Z</time></trkpt>
 <trkpt lat="31.068893300" lon="120.673270400"><ele>3</ele><time>2013-03-09T08:05:15Z</time></trkpt>
 <trkpt lat="31.069004900" lon="120.673063300"><ele>3</ele><time>2013-03-09T08:05:19Z</time></trkpt>
 <trkpt lat="31.069074100" lon="120.672817400"><ele>2</ele><time>2013-03-09T08:05:23Z</time></trkpt>
 <trkpt lat="31.069174900" lon="120.672579900"><ele>2</ele><time>2013-03-09T08:05:27Z</time></trkpt>
 <trkpt lat="31.069277000" lon="120.672360800"><ele>2</ele><time>2013-03-09T08:05:31Z</time></trkpt>
 <trkpt lat="31.069371600" lon="120.672135800"><ele>2</ele><time>2013-03-09T08:05:35Z</time></trkpt>
 <trkpt lat="31.069494100" lon="120.671902000"><ele>2</ele><time>2013-03-09T08:05:39Z</time></trkpt>
 <trkpt lat="31.069620800" lon="120.671662400"><ele>1</ele><time>2013-03-09T08:05:43Z</time></trkpt>
 <trkpt lat="31.069727000" lon="120.671395800"><ele>1</ele><time>2013-03-09T08:05:47Z</time></trkpt>
 <trkpt lat="31.069840800" lon="120.671102000"><ele>1</ele><time>2013-03-09T08:05:51Z</time></trkpt>
 <trkpt lat="31.069962000" lon="120.670803700"><ele>1</ele><time>2013-03-09T08:05:55Z</time></trkpt>
 <trkpt lat="31.070066600" lon="120.670626200"><ele>1</ele><time>2013-03-09T08:05:59Z</time></trkpt>
 <trkpt lat="31.070227000" lon="120.670624100"><ele>1</ele><time>2013-03-09T08:06:03Z</time></trkpt>
 <trkpt lat="31.070484900" lon="120.670670300"><ele>1</ele><time>2013-03-09T08:06:07Z</time></trkpt>
 <trkpt lat="31.070814500" lon="120.670692000"><ele>2</ele><time>2013-03-09T08:06:11Z</time></trkpt>
 <trkpt lat="31.071196600" lon="120.670722000"><ele>2</ele><time>2013-03-09T08:06:15Z</time></trkpt>
 <trkpt lat="31.071605800" lon="120.670744100"><ele>3</ele><time>2013-03-09T08:06:19Z</time></trkpt>
 <trkpt lat="31.071997800" lon="120.670759100"><ele>3</ele><time>2013-03-09T08:06:23Z</time></trkpt>
 <trkpt lat="31.072379100" lon="120.670780800"><ele>4</ele><time>2013-03-09T08:06:27Z</time></trkpt>
 <trkpt lat="31.072783300" lon="120.670810400"><ele>5</ele><time>2013-03-09T08:06:31Z</time></trkpt>
 <trkpt lat="31.073187000" lon="120.670865300"><ele>6</ele><time>2013-03-09T08:06:35Z</time></trkpt>
 <trkpt lat="31.073536600" lon="120.670915800"><ele>6</ele><time>2013-03-09T08:06:39Z</time></trkpt>
 <trkpt lat="31.073832800" lon="120.670939500"><ele>7</ele><time>2013-03-09T08:06:43Z</time></trkpt>
 <trkpt lat="31.074129900" lon="120.670950300"><ele>8</ele><time>2013-03-09T08:06:47Z</time></trkpt>
 <trkpt lat="31.074489500" lon="120.670950300"><ele>9</ele><time>2013-03-09T08:06:51Z</time></trkpt>
 <trkpt lat="31.074896600" lon="120.670944900"><ele>10</ele><time>2013-03-09T08:06:55Z</time></trkpt>
 <trkpt lat="31.075264100" lon="120.670934100"><ele>10</ele><time>2013-03-09T08:06:59Z</time></trkpt>
 <trkpt lat="31.075600800" lon="120.670925700"><ele>11</ele><time>2013-03-09T08:07:03Z</time></trkpt>
 <trkpt lat="31.075878700" lon="120.670945800"><ele>11</ele><time>2013-03-09T08:07:07Z</time></trkpt>
 <trkpt lat="31.076136200" lon="120.670949500"><ele>11</ele><time>2013-03-09T08:07:11Z</time></trkpt>
 <trkpt lat="31.076331200" lon="120.670961600"><ele>11</ele><time>2013-03-09T08:07:15Z</time></trkpt>
 <trkpt lat="31.076491600" lon="120.670997000"><ele>11</ele><time>2013-03-09T08:07:19Z</time></trkpt>
 <trkpt lat="31.076746600" lon="120.671092400"><ele>11</ele><time>2013-03-09T08:07:23Z</time></trkpt>
 <trkpt lat="31.077021600" lon="120.671181200"><ele>11</ele><time>2013-03-09T08:07:27Z</time></trkpt>
 <trkpt lat="31.077201600" lon="120.671201600"><ele>10</ele><time>2013-03-09T08:07:31Z</time></trkpt>
 <trkpt lat="31.077264500" lon="120.671018700"><ele>10</ele><time>2013-03-09T08:07:35Z</time></trkpt>
 <trkpt lat="31.077303700" lon="120.670737400"><ele>9</ele><time>2013-03-09T08:07:39Z</time></trkpt>
 <trkpt lat="31.077349100" lon="120.670432800"><ele>8</ele><time>2013-03-09T08:07:43Z</time></trkpt>
 <trkpt lat="31.077400800" lon="120.670150800"><ele>7</ele><time>2013-03-09T08:07:47Z</time></trkpt>
 <trkpt lat="31.077420400" lon="120.669868300"><ele>6</ele><time>2013-03-09T08:07:51Z</time></trkpt>
 <trkpt lat="31.077423300" lon="120.669562000"><ele>5</ele><time>2013-03-09T08:07:55Z</time></trkpt>
 <trkpt lat="31.077424500" lon="120.669289900"><ele>4</ele><time>2013-03-09T08:07:59Z</time></trkpt>
 <trkpt lat="31.077431200" lon="120.669069900"><ele>3</ele><time>2013-03-09T08:08:03Z</time></trkpt>
 <trkpt lat="31.077435400" lon="120.668960800"><ele>2</ele><time>2013-03-09T08:08:07Z</time></trkpt>
 <trkpt lat="31.077440300" lon="120.668851200"><ele>1</ele><time>2013-03-09T08:08:11Z</time></trkpt>
 <trkpt lat="31.077452900" lon="120.668625800"><ele>1</ele><time>2013-03-09T08:08:15Z</time></trkpt>
 <trkpt lat="31.077470300" lon="120.668283700"><ele>0</ele><time>2013-03-09T08:08:19Z</time></trkpt>
 <trkpt lat="31.077480300" lon="120.668010800"><ele>0</ele><time>2013-03-09T08:08:23Z</time></trkpt>
 <trkpt lat="31.077482900" lon="120.667846200"><ele>0</ele><time>2013-03-09T08:08:27Z</time></trkpt>
 <trkpt lat="31.077506200" lon="120.667666600"><ele>0</ele><time>2013-03-09T08:08:31Z</time></trkpt>
 <trkpt lat="31.077499500" lon="120.667479100"><ele>0</ele><time>2013-03-09T08:08:35Z</time></trkpt>
 <trkpt lat="31.077503700" lon="120.667301200"><ele>0</ele><time>2013-03-09T08:08:39Z</time></trkpt>
 <trkpt lat="31.077572000" lon="120.666987900"><ele>1</ele><time>2013-03-09T08:08:43Z</time></trkpt>
 <trkpt lat="31.077642400" lon="120.666598700"><ele>2</ele><time>2013-03-09T08:08:47Z</time></trkpt>
 <trkpt lat="31.077690300" lon="120.666169100"><ele>3</ele><time>2013-03-09T08:08:51Z</time></trkpt>
 <trkpt lat="31.077742400" lon="120.665740300"><ele>4</ele><time>2013-03-09T08:08:55Z</time></trkpt>
 <trkpt lat="31.077787000" lon="120.665364100"><ele>5</ele><time>2013-03-09T08:08:59Z</time></trkpt>
 <trkpt lat="31.077831600" lon="120.664987400"><ele>7</ele><time>2013-03-09T08:09:03Z</time></trkpt>
 <trkpt lat="31.077902900" lon="120.664553700"><ele>8</ele><time>2013-03-09T08:09:07Z</time></trkpt>
 <trkpt lat="31.077962800" lon="120.664124900"><ele>10</ele><time>2013-03-09T08:09:11Z</time></trkpt>
 <trkpt lat="31.078014900" lon="120.663686600"><ele>12</ele><time>2013-03-09T08:09:15Z</time></trkpt>
 <trkpt lat="31.078010700" lon="120.663302000"><ele>13</ele><time>2013-03-09T08:09:19Z</time></trkpt>
 <trkpt lat="31.077803700" lon="120.663026200"><ele>15</ele><time>2013-03-09T08:09:23Z</time></trkpt>
 <trkpt lat="31.077508300" lon="120.662916200"><ele>16</ele><time>2013-03-09T08:09:27Z</time></trkpt>
 <trkpt lat="31.077227000" lon="120.662871200"><ele>17</ele><time>2013-03-09T08:09:31Z</time></trkpt>
 <trkpt lat="31.076916600" lon="120.662831600"><ele>18</ele><time>2013-03-09T08:09:35Z</time></trkpt>
 <trkpt lat="31.076607000" lon="120.662849500"><ele>19</ele><time>2013-03-09T08:09:39Z</time></trkpt>
 <trkpt lat="31.076369100" lon="120.662947000"><ele>19</ele><time>2013-03-09T08:09:43Z</time></trkpt>
 <trkpt lat="31.076248700" lon="120.663172000"><ele>20</ele><time>2013-03-09T08:09:47Z</time></trkpt>
 <trkpt lat="31.076168700" lon="120.663464100"><ele>20</ele><time>2013-03-09T08:09:51Z</time></trkpt>
 <trkpt lat="31.076152000" lon="120.663667000"><ele>20</ele><time>2013-03-09T08:09:55Z</time></trkpt>
 <trkpt lat="31.076126600" lon="120.663728300"><ele>21</ele><time>2013-03-09T08:09:59Z</time></trkpt>
 <trkpt lat="31.076128300" lon="120.663772400"><ele>21</ele><time>2013-03-09T08:10:03Z</time></trkpt>
 <trkpt lat="31.076150300" lon="120.663793300"><ele>21</ele><time>2013-03-09T08:10:07Z</time></trkpt>
 <trkpt lat="31.076172000" lon="120.663838300"><ele>21</ele><time>2013-03-09T08:10:11Z</time></trkpt>
 <trkpt lat="31.076329900" lon="120.663948300"><ele>21</ele><time>2013-03-09T08:10:15Z</time></trkpt>
 <trkpt lat="31.076759500" lon="120.664144100"><ele>21</ele><time>2013-03-09T08:10:19Z</time></trkpt>
 <trkpt lat="31.077362400" lon="120.664300300"><ele>21</ele><time>2013-03-09T08:10:23Z</time></trkpt>
 <trkpt lat="31.077982400" lon="120.664415800"><ele>21</ele><time>2013-03-09T08:10:27Z</time></trkpt>
 <trkpt lat="31.078661600" lon="120.664545700"><ele>21</ele><time>2013-03-09T08:10:31Z</time></trkpt>
 <trkpt lat="31.079427000" lon="120.664715800"><ele>20</ele><time>2013-03-09T08:10:35Z</time></trkpt>
 <trkpt lat="31.080194100" lon="120.664876200"><ele>20</ele><time>2013-03-09T08:10:39Z</time></trkpt>
 <trkpt lat="31.080904500" lon="120.664998300"><ele>19</ele><time>2013-03-09T08:10:43Z</time></trkpt>
 <trkpt lat="31.081566200" lon="120.665137800"><ele>19</ele><time>2013-03-09T08:10:47Z</time></trkpt>
 <trkpt lat="31.082225800" lon="120.665273300"><ele>18</ele><time>2013-03-09T08:10:51Z</time></trkpt>
 <trkpt lat="31.082884500" lon="120.665408700"><ele>17</ele><time>2013-03-09T08:10:55Z</time></trkpt>
 <trkpt lat="31.083496600" lon="120.665541200"><ele>15</ele><time>2013-03-09T08:10:59Z</time></trkpt>
 <trkpt lat="31.084057800" lon="120.665662400"><ele>14</ele><time>2013-03-09T08:11:03Z</time></trkpt>
 <trkpt lat="31.084566200" lon="120.665749100"><ele>13</ele><time>2013-03-09T08:11:07Z</time></trkpt>
 <trkpt lat="31.085020300" lon="120.665830800"><ele>12</ele><time>2013-03-09T08:11:11Z</time></trkpt>
 <trkpt lat="31.085390300" lon="120.665889900"><ele>10</ele><time>2013-03-09T08:11:15Z</time></trkpt>
 <trkpt lat="31.085688700" lon="120.665949100"><ele>9</ele><time>2013-03-09T08:11:19Z</time></trkpt>
 <trkpt lat="31.085912000" lon="120.665986600"><ele>8</ele><time>2013-03-09T08:11:23Z</time></trkpt>
 <trkpt lat="31.086071600" lon="120.666005300"><ele>6</ele><time>2013-03-09T08:11:27Z</time></trkpt>
 <trkpt lat="31.086296600" lon="120.666028700"><ele>5</ele><time>2013-03-09T08:11:31Z</time></trkpt>
 <trkpt lat="31.086552000" lon="120.666107000"><ele>5</ele><time>2013-03-09T08:11:35Z</time></trkpt>
 <trkpt lat="31.086839100" lon="120.666209100"><ele>4</ele><time>2013-03-09T08:11:39Z</time></trkpt>
 <trkpt lat="31.087228700" lon="120.666322400"><ele>4</ele><time>2013-03-09T08:11:43Z</time></trkpt>
 <trkpt lat="31.087658300" lon="120.666421600"><ele>3</ele><time>2013-03-09T08:11:47Z</time></trkpt>
 <trkpt lat="31.088004900" lon="120.666482000"><ele>3</ele><time>2013-03-09T08:11:51Z</time></trkpt>
 <trkpt lat="31.088340300" lon="120.666553700"><ele>3</ele><time>2013-03-09T08:11:55Z</time></trkpt>
 <trkpt lat="31.088755400" lon="120.666651600"><ele>3</ele><time>2013-03-09T08:11:59Z</time></trkpt>
 <trkpt lat="31.089164100" lon="120.666738700"><ele>3</ele><time>2013-03-09T08:12:03Z</time></trkpt>
 <trkpt lat="31.089534900" lon="120.666812400"><ele>4</ele><time>2013-03-09T08:12:07Z</time></trkpt>
 <trkpt lat="31.089954500" lon="120.666909500"><ele>4</ele><time>2013-03-09T08:12:11Z</time></trkpt>
 <trkpt lat="31.090459100" lon="120.667043700"><ele>4</ele><time>2013-03-09T08:12:15Z</time></trkpt>
 <trkpt lat="31.091043700" lon="120.667192800"><ele>4</ele><time>2013-03-09T08:12:19Z</time></trkpt>
 <trkpt lat="31.091691600" lon="120.667316600"><ele>4</ele><time>2013-03-09T08:12:23Z</time></trkpt>
 <trkpt lat="31.092374500" lon="120.667459900"><ele>4</ele><time>2013-03-09T08:12:27Z</time></trkpt>
 <trkpt lat="31.093052000" lon="120.667608700"><ele>4</ele><time>2013-03-09T08:12:31Z</time></trkpt>
 <trkpt lat="31.093699900" lon="120.667738700"><ele>4</ele><time>2013-03-09T08:12:35Z</time></trkpt>
 <trkpt lat="31.094262800" lon="120.667853700"><ele>4</ele><time>2013-03-09T08:12:39Z</time></trkpt>
 <trkpt lat="31.094703300" lon="120.667946200"><ele>3</ele><time>2013-03-09T08:12:43Z</time></trkpt>
 <trkpt lat="31.095167800" lon="120.668035800"><ele>3</ele><time>2013-03-09T08:12:47Z</time></trkpt>
 <trkpt lat="31.095630700" lon="120.668115400"><ele>3</ele><time>2013-03-09T08:12:51Z</time></trkpt>
 <trkpt lat="31.096103300" lon="120.668182400"><ele>3</ele><time>2013-03-09T08:12:55Z</time></trkpt>
 <trkpt lat="31.096600400" lon="120.668262900"><ele>3</ele><time>2013-03-09T08:12:59Z</time></trkpt>
 <trkpt lat="31.097152000" lon="120.668356200"><ele>3</ele><time>2013-03-09T08:13:03Z</time></trkpt>
 <trkpt lat="31.097735300" lon="120.668438700"><ele>2</ele><time>2013-03-09T08:13:07Z</time></trkpt>
 <trkpt lat="31.098364900" lon="120.668539500"><ele>2</ele><time>2013-03-09T08:13:11Z</time></trkpt>
 <trkpt lat="31.099017400" lon="120.668636200"><ele>2</ele><time>2013-03-09T08:13:15Z</time></trkpt>
 <trkpt lat="31.099659900" lon="120.668728700"><ele>2</ele><time>2013-03-09T08:13:19Z</time></trkpt>
 <trkpt lat="31.100281200" lon="120.668820800"><ele>2</ele><time>2013-03-09T08:13:23Z</time></trkpt>
 <trkpt lat="31.100852800" lon="120.668898200"><ele>2</ele><time>2013-03-09T08:13:27Z</time></trkpt>
 <trkpt lat="31.101344500" lon="120.668963700"><ele>2</ele><time>2013-03-09T08:13:31Z</time></trkpt>
 <trkpt lat="31.101821200" lon="120.669025800"><ele>3</ele><time>2013-03-09T08:13:35Z</time></trkpt>
 <trkpt lat="31.102345800" lon="120.669078700"><ele>3</ele><time>2013-03-09T08:13:39Z</time></trkpt>
 <trkpt lat="31.102929500" lon="120.669166200"><ele>3</ele><time>2013-03-09T08:13:43Z</time></trkpt>
 <trkpt lat="31.103572400" lon="120.669264500"><ele>3</ele><time>2013-03-09T08:13:47Z</time></trkpt>
 <trkpt lat="31.104214500" lon="120.669361200"><ele>3</ele><time>2013-03-09T08:13:51Z</time></trkpt>
 <trkpt lat="31.104846200" lon="120.669440800"><ele>3</ele><time>2013-03-09T08:13:55Z</time></trkpt>
 <trkpt lat="31.105492000" lon="120.669524500"><ele>3</ele><time>2013-03-09T08:13:59Z</time></trkpt>
 <trkpt lat="31.106168700" lon="120.669609500"><ele>4</ele><time>2013-03-09T08:14:03Z</time></trkpt>
 <trkpt lat="31.106870300" lon="120.669688200"><ele>4</ele><time>2013-03-09T08:14:07Z</time></trkpt>
 <trkpt lat="31.107587800" lon="120.669772800"><ele>4</ele><time>2013-03-09T08:14:11Z</time></trkpt>
 <trkpt lat="31.108314100" lon="120.669863700"><ele>5</ele><time>2013-03-09T08:14:15Z</time></trkpt>
 <trkpt lat="31.109035300" lon="120.669947800"><ele>6</ele><time>2013-03-09T08:14:19Z</time></trkpt>
 <trkpt lat="31.109744900" lon="120.670032800"><ele>7</ele><time>2013-03-09T08:14:23Z</time></trkpt>
 <trkpt lat="31.110457400" lon="120.670112000"><ele>8</ele><time>2013-03-09T08:14:27Z</time></trkpt>
 <trkpt lat="31.111169500" lon="120.670184500"><ele>10</ele><time>2013-03-09T08:14:31Z</time></trkpt>
 <trkpt lat="31.111918300" lon="120.670261600"><ele>11</ele><time>2013-03-09T08:14:35Z</time></trkpt>
 <trkpt lat="31.112720800" lon="120.670344500"><ele>13</ele><time>2013-03-09T08:14:39Z</time></trkpt>
 <trkpt lat="31.113551200" lon="120.670434500"><ele>14</ele><time>2013-03-09T08:14:43Z</time></trkpt>
 <trkpt lat="31.114375800" lon="120.670470800"><ele>16</ele><time>2013-03-09T08:14:47Z</time></trkpt>
 <trkpt lat="31.115152000" lon="120.670415300"><ele>18</ele><time>2013-03-09T08:14:51Z</time></trkpt>
 <trkpt lat="31.115830300" lon="120.670354900"><ele>20</ele><time>2013-03-09T08:14:55Z</time></trkpt>
 <trkpt lat="31.116412900" lon="120.670269500"><ele>22</ele><time>2013-03-09T08:14:59Z</time></trkpt>
 <trkpt lat="31.116839500" lon="120.670190800"><ele>24</ele><time>2013-03-09T08:15:03Z</time></trkpt>
 <trkpt lat="31.117117900" lon="120.670148300"><ele>26</ele><time>2013-03-09T08:15:07Z</time></trkpt>
 <trkpt lat="31.117262400" lon="120.670121600"><ele>29</ele><time>2013-03-09T08:15:11Z</time></trkpt>
 <trkpt lat="31.117467000" lon="120.670092900"><ele>31</ele><time>2013-03-09T08:15:15Z</time></trkpt>
 <trkpt lat="31.117822900" lon="120.670072800"><ele>33</ele><time>2013-03-09T08:15:19Z</time></trkpt>
 <trkpt lat="31.118274500" lon="120.670054500"><ele>35</ele><time>2013-03-09T08:15:23Z</time></trkpt>
 <trkpt lat="31.118819100" lon="120.670019900"><ele>37</ele><time>2013-03-09T08:15:27Z</time></trkpt>
 <trkpt lat="31.119434900" lon="120.669979500"><ele>39</ele><time>2013-03-09T08:15:31Z</time></trkpt>
 <trkpt lat="31.120099500" lon="120.669906600"><ele>40</ele><time>2013-03-09T08:15:35Z</time></trkpt>
 <trkpt lat="31.120754100" lon="120.669785800"><ele>42</ele><time>2013-03-09T08:15:39Z</time></trkpt>
 <trkpt lat="31.121395300" lon="120.669610400"><ele>43</ele><time>2013-03-09T08:15:43Z</time></trkpt>
 <trkpt lat="31.122079500" lon="120.669425400"><ele>44</ele><time>2013-03-09T08:15:47Z</time></trkpt>
 <trkpt lat="31.122816600" lon="120.669227400"><ele>45</ele><time>2013-03-09T08:15:51Z</time></trkpt>
 <trkpt lat="31.123592800" lon="120.669032000"><ele>45</ele><time>2013-03-09T08:15:55Z</time></trkpt>
 <trkpt lat="31.124420800" lon="120.668823300"><ele>46</ele><time>2013-03-09T08:15:59Z</time></trkpt>
 <trkpt lat="31.125259100" lon="120.668609100"><ele>46</ele><time>2013-03-09T08:16:03Z</time></trkpt>
 <trkpt lat="31.126070700" lon="120.668395400"><ele>46</ele><time>2013-03-09T08:16:07Z</time></trkpt>
 <trkpt lat="31.126835800" lon="120.668202500"><ele>45</ele><time>2013-03-09T08:16:11Z</time></trkpt>
 <trkpt lat="31.127513700" lon="120.668027900"><ele>45</ele><time>2013-03-09T08:16:15Z</time></trkpt>
 <trkpt lat="31.128154500" lon="120.667831200"><ele>44</ele><time>2013-03-09T08:16:19Z</time></trkpt>
 <trkpt lat="31.128818200" lon="120.667631200"><ele>43</ele><time>2013-03-09T08:16:23Z</time></trkpt>
 <trkpt lat="31.129488700" lon="120.667409900"><ele>41</ele><time>2013-03-09T08:16:27Z</time></trkpt>
 <trkpt lat="31.130147400" lon="120.667169100"><ele>40</ele><time>2013-03-09T08:16:31Z</time></trkpt>
 <trkpt lat="31.130792400" lon="120.666903300"><ele>39</ele><time>2013-03-09T08:16:35Z</time></trkpt>
 <trkpt lat="31.131438700" lon="120.666612000"><ele>37</ele><time>2013-03-09T08:16:39Z</time></trkpt>
 <trkpt lat="31.132059100" lon="120.666309100"><ele>36</ele><time>2013-03-09T08:16:43Z</time></trkpt>
 <trkpt lat="31.132635800" lon="120.665992400"><ele>34</ele><time>2013-03-09T08:16:47Z</time></trkpt>
 <trkpt lat="31.133198700" lon="120.665653700"><ele>33</ele><time>2013-03-09T08:16:51Z</time></trkpt>
 <trkpt lat="31.133778700" lon="120.665305800"><ele>31</ele><time>2013-03-09T08:16:55Z</time></trkpt>
 <trkpt lat="31.134356600" lon="120.664965400"><ele>30</ele><time>2013-03-09T08:16:59Z</time></trkpt>
 <trkpt lat="31.134931200" lon="120.664590800"><ele>28</ele><time>2013-03-09T08:17:03Z</time></trkpt>
 <trkpt lat="31.135546200" lon="120.664165700"><ele>27</ele><time>2013-03-09T08:17:07Z</time></trkpt>
 <trkpt lat="31.136177800" lon="120.663699100"><ele>25</ele><time>2013-03-09T08:17:11Z</time></trkpt>
 <trkpt lat="31.136757800" lon="120.663248700"><ele>24</ele><time>2013-03-09T08:17:15Z</time></trkpt>
 <trkpt lat="31.137189500" lon="120.662929900"><ele>23</ele><time>2013-03-09T08:17:19Z</time></trkpt>
 <trkpt lat="31.137301200" lon="120.662897800"><ele>22</ele><time>2013-03-09T08:17:23Z</time></trkpt>
 <trkpt lat="31.137311200" lon="120.662904100"><ele>21</ele><time>2013-03-09T08:17:27Z</time></trkpt>
 <trkpt lat="31.137313300" lon="120.662911200"><ele>20</ele><time>2013-03-09T08:17:31Z</time></trkpt>
 <trkpt lat="31.137321600" lon="120.662911200"><ele>19</ele><time>2013-03-09T08:17:35Z</time></trkpt>
 <trkpt lat="31.137342000" lon="120.662907800"><ele>18</ele><time>2013-03-09T08:17:39Z</time></trkpt>
 <trkpt lat="31.137429100" lon="120.662828700"><ele>17</ele><time>2013-03-09T08:17:43Z</time></trkpt>
 <trkpt lat="31.137647400" lon="120.662635300"><ele>16</ele><time>2013-03-09T08:17:47Z</time></trkpt>
 <trkpt lat="31.137999100" lon="120.662357000"><ele>15</ele><time>2013-03-09T08:17:51Z</time></trkpt>
 <trkpt lat="31.138451600" lon="120.662004900"><ele>14</ele><time>2013-03-09T08:17:55Z</time></trkpt>
 <trkpt lat="31.138966200" lon="120.661619900"><ele>13</ele><time>2013-03-09T08:17:59Z</time></trkpt>
 <trkpt lat="31.139548300" lon="120.661200800"><ele>12</ele><time>2013-03-09T08:18:03Z</time></trkpt>
 <trkpt lat="31.140128700" lon="120.660777500"><ele>11</ele><time>2013-03-09T08:18:07Z</time></trkpt>
 <trkpt lat="31.140696200" lon="120.660368700"><ele>11</ele><time>2013-03-09T08:18:11Z</time></trkpt>
 <trkpt lat="31.141248700" lon="120.659969100"><ele>10</ele><time>2013-03-09T08:18:15Z</time></trkpt>
 <trkpt lat="31.141808700" lon="120.659557000"><ele>9</ele><time>2013-03-09T08:18:19Z</time></trkpt>
 <trkpt lat="31.142389100" lon="120.659131600"><ele>8</ele><time>2013-03-09T08:18:23Z</time></trkpt>
 <trkpt lat="31.142962400" lon="120.658632900"><ele>7</ele><time>2013-03-09T08:18:27Z</time></trkpt>
 <trkpt lat="31.143482000" lon="120.658082800"><ele>6</ele><time>2013-03-09T08:18:31Z</time></trkpt>
 <trkpt lat="31.143961600" lon="120.657484100"><ele>5</ele><time>2013-03-09T08:18:35Z</time></trkpt>
 <trkpt lat="31.144412000" lon="120.656879900"><ele>4</ele><time>2013-03-09T08:18:39Z</time></trkpt>
 <trkpt lat="31.144864500" lon="120.656304100"><ele>3</ele><time>2013-03-09T08:18:43Z</time></trkpt>
 <trkpt lat="31.145303700" lon="120.655728300"><ele>3</ele><time>2013-03-09T08:18:47Z</time></trkpt>
 <trkpt lat="31.145759100" lon="120.655172400"><ele>2</ele><time>2013-03-09T08:18:51Z</time></trkpt>
 <trkpt lat="31.146198700" lon="120.654683700"><ele>2</ele><time>2013-03-09T08:18:55Z</time></trkpt>
 <trkpt lat="31.146587800" lon="120.654268700"><ele>1</ele><time>2013-03-09T08:18:59Z</time></trkpt>
 <trkpt lat="31.146919500" lon="120.653935700"><ele>1</ele><time>2013-03-09T08:19:03Z</time></trkpt>
 <trkpt lat="31.147208300" lon="120.653651200"><ele>1</ele><time>2013-03-09T08:19:07Z</time></trkpt>
 <trkpt lat="31.147514500" lon="120.653359500"><ele>1</ele><time>2013-03-09T08:19:11Z</time></trkpt>
 <trkpt lat="31.147883700" lon="120.653033700"><ele>1</ele><time>2013-03-09T08:19:15Z</time></trkpt>
 <trkpt lat="31.148294900" lon="120.652672800"><ele>1</ele><time>2013-03-09T08:19:19Z</time></trkpt>
 <trkpt lat="31.148682000" lon="120.652325800"><ele>2</ele><time>2013-03-09T08:19:23Z</time></trkpt>
 <trkpt lat="31.149021600" lon="120.652032800"><ele>2</ele><time>2013-03-09T08:19:27Z</time></trkpt>
 <trkpt lat="31.149357000" lon="120.651758700"><ele>3</ele><time>2013-03-09T08:19:31Z</time></trkpt>
 <trkpt lat="31.149562400" lon="120.651588700"><ele>4</ele><time>2013-03-09T08:19:35Z</time></trkpt>
 <trkpt lat="31.149590300" lon="120.651558700"><ele>4</ele><time>2013-03-09T08:19:39Z</time></trkpt>
 <trkpt lat="31.149583700" lon="120.651559900"><ele>5</ele><time>2013-03-09T08:19:43Z</time></trkpt>
 <trkpt lat="31.149584900" lon="120.651572900"><ele>5</ele><time>2013-03-09T08:19:47Z</time></trkpt>
 <trkpt lat="31.149561200" lon="120.651607000"><ele>5</ele><time>2013-03-09T08:19:51Z</time></trkpt>
 <trkpt lat="31.149537000" lon="120.651627400"><ele>6</ele><time>2013-03-09T08:19:55Z</time></trkpt>
 <trkpt lat="31.149536600" lon="120.651622400"><ele>6</ele><time>2013-03-09T08:19:59Z</time></trkpt>
 <trkpt lat="31.149612000" lon="120.651544500"><ele>6</ele><time>2013-03-09T08:20:03Z</time></trkpt>
 <trkpt lat="31.149849100" lon="120.651313700"><ele>6</ele><time>2013-03-09T08:20:07Z</time></trkpt>
 <trkpt lat="31.150286200" lon="120.650973700"><ele>6</ele><time>2013-03-09T08:20:11Z</time></trkpt>
 <trkpt lat="31.150824900" lon="120.650584500"><ele>7</ele><time>2013-03-09T08:20:15Z</time></trkpt>
 <trkpt lat="31.151379900" lon="120.650173300"><ele>7</ele><time>2013-03-09T08:20:19Z</time></trkpt>
 <trkpt lat="31.151916200" lon="120.649772400"><ele>7</ele><time>2013-03-09T08:20:23Z</time></trkpt>
 <trkpt lat="31.152432000" lon="120.649383300"><ele>7</ele><time>2013-03-09T08:20:27Z</time></trkpt>
 <trkpt lat="31.152956200" lon="120.648999900"><ele>7</ele><time>2013-03-09T08:20:31Z</time></trkpt>
 <trkpt lat="31.153507400" lon="120.648706200"><ele>7</ele><time>2013-03-09T08:20:35Z</time></trkpt>
 <trkpt lat="31.154064100" lon="120.648565400"><ele>7</ele><time>2013-03-09T08:20:39Z</time></trkpt>
 <trkpt lat="31.154585700" lon="120.648510300"><ele>7</ele><time>2013-03-09T08:20:43Z</time></trkpt>
 <trkpt lat="31.155040400" lon="120.648471200"><ele>7</ele><time>2013-03-09T08:20:47Z</time></trkpt>
 <trkpt lat="31.155458300" lon="120.648443700"><ele>7</ele><time>2013-03-09T08:20:51Z</time></trkpt>
 <trkpt lat="31.155892900" lon="120.648392800"><ele>7</ele><time>2013-03-09T08:20:55Z</time></trkpt>
 <trkpt lat="31.156382000" lon="120.648329900"><ele>7</ele><time>2013-03-09T08:20:59Z</time></trkpt>
 <trkpt lat="31.156916600" lon="120.648233700"><ele>6</ele><time>2013-03-09T08:21:03Z</time></trkpt>
 <trkpt lat="31.157506600" lon="120.648115800"><ele>6</ele><time>2013-03-09T08:21:07Z</time></trkpt>
 <trkpt lat="31.158056200" lon="120.648006600"><ele>6</ele><time>2013-03-09T08:21:11Z</time></trkpt>
 <trkpt lat="31.158453200" lon="120.647922000"><ele>6</ele><time>2013-03-09T08:21:15Z</time></trkpt>
 <trkpt lat="31.158657900" lon="120.647870700"><ele>6</ele><time>2013-03-09T08:21:19Z</time></trkpt>
 <trkpt lat="31.158704900" lon="120.647874500"><ele>6</ele><time>2013-03-09T08:21:23Z</time></trkpt>
 <trkpt lat="31.158688700" lon="120.647904900"><ele>5</ele><time>2013-03-09T08:21:27Z</time></trkpt>
 <trkpt lat="31.158688700" lon="120.647904900"><ele>5</ele><time>2013-03-09T08:21:31Z</time></trkpt>
 <trkpt lat="31.158688700" lon="120.647904900"><ele>5</ele><time>2013-03-09T08:21:35Z</time></trkpt>
 <trkpt lat="31.158688700" lon="120.647904900"><ele>4</ele><time>2013-03-09T08:21:39Z</time></trkpt>
 <trkpt lat="31.158688700" lon="120.647904900"><ele>4</ele><time>2013-03-09T08:21:43Z</time></trkpt>
 <trkpt lat="31.158688700" lon="120.647904900"><ele>4</ele><time>2013-03-09T08:21:47Z</time></trkpt>
 <trkpt lat="31.158688700" lon="120.647904900"><ele>4</ele><time>2013-03-09T08:21:51Z</time></trkpt>
 <trkpt lat="31.158688700" lon="120.647904900"><ele>4</ele><time>2013-03-09T08:21:55Z</time></trkpt>
 <trkpt lat="31.158688700" lon="120.647904900"><ele>4</ele><time>2013-03-09T08:21:59Z</time></trkpt>
 <trkpt lat="31.158688700" lon="120.647904900"><ele>4</ele><time>2013-03-09T08:22:03Z</time></trkpt>
 <trkpt lat="31.158740800" lon="120.647889500"><ele>5</ele><time>2013-03-09T08:22:07Z</time></trkpt>
 <trkpt lat="31.159005800" lon="120.647788700"><ele>6</ele><time>2013-03-09T08:22:11Z</time></trkpt>
 <trkpt lat="31.159404900" lon="120.647615800"><ele>7</ele><time>2013-03-09T08:22:15Z</time></trkpt>
 <trkpt lat="31.159831200" lon="120.647337800"><ele>7</ele><time>2013-03-09T08:22:19Z</time></trkpt>
 <trkpt lat="31.160241200" lon="120.647079100"><ele>8</ele><time>2013-03-09T08:22:23Z</time></trkpt>
 <trkpt lat="31.160661200" lon="120.646810800"><ele>9</ele><time>2013-03-09T08:22:27Z</time></trkpt>
 <trkpt lat="31.161097400" lon="120.646525300"><ele>9</ele><time>2013-03-09T08:22:31Z</time></trkpt>
 <trkpt lat="31.161537900" lon="120.646238300"><ele>9</ele><time>2013-03-09T08:22:35Z</time></trkpt>
 <trkpt lat="31.161952000" lon="120.645990800"><ele>9</ele><time>2013-03-09T08:22:39Z</time></trkpt>
 <trkpt lat="31.162304100" lon="120.645804900"><ele>9</ele><time>2013-03-09T08:22:43Z</time></trkpt>
 <trkpt lat="31.162643300" lon="120.645675300"><ele>9</ele><time>2013-03-09T08:22:47Z</time></trkpt>
 <trkpt lat="31.162997800" lon="120.645598200"><ele>9</ele><time>2013-03-09T08:22:51Z</time></trkpt>
 <trkpt lat="31.163299100" lon="120.645569100"><ele>9</ele><time>2013-03-09T08:22:55Z</time></trkpt>
 <trkpt lat="31.163607000" lon="120.645629900"><ele>9</ele><time>2013-03-09T08:22:59Z</time></trkpt>
 <trkpt lat="31.163871600" lon="120.645723300"><ele>9</ele><time>2013-03-09T08:23:03Z</time></trkpt>
 <trkpt lat="31.164095400" lon="120.645820800"><ele>9</ele><time>2013-03-09T08:23:07Z</time></trkpt>
 <trkpt lat="31.164396200" lon="120.645960800"><ele>8</ele><time>2013-03-09T08:23:11Z</time></trkpt>
 <trkpt lat="31.164760300" lon="120.646155800"><ele>7</ele><time>2013-03-09T08:23:15Z</time></trkpt>
 <trkpt lat="31.165117000" lon="120.646341200"><ele>6</ele><time>2013-03-09T08:23:19Z</time></trkpt>
 <trkpt lat="31.165414500" lon="120.646439100"><ele>5</ele><time>2013-03-09T08:23:23Z</time></trkpt>
 <trkpt lat="31.165627800" lon="120.646486200"><ele>4</ele><time>2013-03-09T08:23:27Z</time></trkpt>
 <trkpt lat="31.165767800" lon="120.646494900"><ele>4</ele><time>2013-03-09T08:23:31Z</time></trkpt>
 <trkpt lat="31.165869100" lon="120.646337000"><ele>3</ele><time>2013-03-09T08:23:35Z</time></trkpt>
 <trkpt lat="31.165909900" lon="120.646085800"><ele>2</ele><time>2013-03-09T08:23:39Z</time></trkpt>
 <trkpt lat="31.165959100" lon="120.645818300"><ele>2</ele><time>2013-03-09T08:23:43Z</time></trkpt>
 <trkpt lat="31.165997400" lon="120.645573300"><ele>2</ele><time>2013-03-09T08:23:47Z</time></trkpt>
 <trkpt lat="31.166040700" lon="120.645388300"><ele>1</ele><time>2013-03-09T08:23:51Z</time></trkpt>
 <trkpt lat="31.166072400" lon="120.645264900"><ele>1</ele><time>2013-03-09T08:23:55Z</time></trkpt>
 <trkpt lat="31.166127000" lon="120.645135400"><ele>1</ele><time>2013-03-09T08:23:59Z</time></trkpt>
 <trkpt lat="31.166169100" lon="120.644932800"><ele>0</ele><time>2013-03-09T08:24:03Z</time></trkpt>
 <trkpt lat="31.166267400" lon="120.644684900"><ele>0</ele><time>2013-03-09T08:24:07Z</time></trkpt>
 <trkpt lat="31.166358300" lon="120.644441200"><ele>0</ele><time>2013-03-09T08:24:11Z</time></trkpt>
 <trkpt lat="31.166437800" lon="120.644193300"><ele>0</ele><time>2013-03-09T08:24:15Z</time></trkpt>
 <trkpt lat="31.166530300" lon="120.643946200"><ele>-1</ele><time>2013-03-09T08:24:19Z</time></trkpt>
 <trkpt lat="31.166605300" lon="120.643696600"><ele>-1</ele><time>2013-03-09T08:24:23Z</time></trkpt>
 <trkpt lat="31.166689500" lon="120.643451600"><ele>-1</ele><time>2013-03-09T08:24:27Z</time></trkpt>
 <trkpt lat="31.166790800" lon="120.643173700"><ele>-1</ele><time>2013-03-09T08:24:31Z</time></trkpt>
 <trkpt lat="31.166892400" lon="120.642916200"><ele>-1</ele><time>2013-03-09T08:24:35Z</time></trkpt>
 <trkpt lat="31.167000300" lon="120.642634100"><ele>-1</ele><time>2013-03-09T08:24:39Z</time></trkpt>
 <trkpt lat="31.167097000" lon="120.642398300"><ele>-1</ele><time>2013-03-09T08:24:43Z</time></trkpt>
 <trkpt lat="31.167225800" lon="120.642226600"><ele>-1</ele><time>2013-03-09T08:24:47Z</time></trkpt>
 <trkpt lat="31.167299500" lon="120.642144100"><ele>-1</ele><time>2013-03-09T08:24:51Z</time></trkpt>
 <trkpt lat="31.167338700" lon="120.642111600"><ele>0</ele><time>2013-03-09T08:24:55Z</time></trkpt>
 <trkpt lat="31.167409500" lon="120.642132400"><ele>0</ele><time>2013-03-09T08:24:59Z</time></trkpt>
 <trkpt lat="31.167575400" lon="120.642233200"><ele>0</ele><time>2013-03-09T08:25:03Z</time></trkpt>
 <trkpt lat="31.167772000" lon="120.642364900"><ele>0</ele><time>2013-03-09T08:25:07Z</time></trkpt>
 <trkpt lat="31.168015800" lon="120.642522400"><ele>1</ele><time>2013-03-09T08:25:11Z</time></trkpt>
 <trkpt lat="31.168268700" lon="120.642607000"><ele>1</ele><time>2013-03-09T08:25:15Z</time></trkpt>
 <trkpt lat="31.168472800" lon="120.642661200"><ele>1</ele><time>2013-03-09T08:25:19Z</time></trkpt>
 <trkpt lat="31.168761600" lon="120.642750800"><ele>2</ele><time>2013-03-09T08:25:23Z</time></trkpt>
 <trkpt lat="31.169120800" lon="120.642919100"><ele>3</ele><time>2013-03-09T08:25:27Z</time></trkpt>
 <trkpt lat="31.169461200" lon="120.643084900"><ele>3</ele><time>2013-03-09T08:25:31Z</time></trkpt>
 <trkpt lat="31.169812000" lon="120.643232000"><ele>4</ele><time>2013-03-09T08:25:35Z</time></trkpt>
 <trkpt lat="31.170178700" lon="120.643396600"><ele>4</ele><time>2013-03-09T08:25:39Z</time></trkpt>
 <trkpt lat="31.170541600" lon="120.643549900"><ele>4</ele><time>2013-03-09T08:25:43Z</time></trkpt>
 <trkpt lat="31.170905800" lon="120.643714100"><ele>5</ele><time>2013-03-09T08:25:47Z</time></trkpt>
 <trkpt lat="31.171305300" lon="120.643853700"><ele>5</ele><time>2013-03-09T08:25:51Z</time></trkpt>
 <trkpt lat="31.171697900" lon="120.644003300"><ele>5</ele><time>2013-03-09T08:25:55Z</time></trkpt>
 <trkpt lat="31.172003700" lon="120.644103700"><ele>5</ele><time>2013-03-09T08:25:59Z</time></trkpt>
 <trkpt lat="31.172205400" lon="120.644121600"><ele>4</ele><time>2013-03-09T08:26:03Z</time></trkpt>
 <trkpt lat="31.172285400" lon="120.644139100"><ele>4</ele><time>2013-03-09T08:26:07Z</time></trkpt>
 <trkpt lat="31.172305400" lon="120.644142400"><ele>4</ele><time>2013-03-09T08:26:11Z</time></trkpt>
 <trkpt lat="31.172302800" lon="120.644136600"><ele>4</ele><time>2013-03-09T08:26:15Z</time></trkpt>
 <trkpt lat="31.172302800" lon="120.644136600"><ele>4</ele><time>2013-03-09T08:26:19Z</time></trkpt>
 <trkpt lat="31.172302800" lon="120.644136600"><ele>4</ele><time>2013-03-09T08:26:23Z</time></trkpt>
 <trkpt lat="31.172301600" lon="120.644129900"><ele>4</ele><time>2013-03-09T08:26:27Z</time></trkpt>
 <trkpt lat="31.172307400" lon="120.644119100"><ele>4</ele><time>2013-03-09T08:26:31Z</time></trkpt>
 <trkpt lat="31.172310000" lon="120.644113300"><ele>3</ele><time>2013-03-09T08:26:35Z</time></trkpt>
 <trkpt lat="31.172310000" lon="120.644113300"><ele>3</ele><time>2013-03-09T08:26:39Z</time></trkpt>
 <trkpt lat="31.172303300" lon="120.644118300"><ele>3</ele><time>2013-03-09T08:26:43Z</time></trkpt>
 <trkpt lat="31.172299100" lon="120.644124900"><ele>3</ele><time>2013-03-09T08:26:47Z</time></trkpt>
 <trkpt lat="31.172376200" lon="120.644151200"><ele>3</ele><time>2013-03-09T08:26:51Z</time></trkpt>
 <trkpt lat="31.172551200" lon="120.644162000"><ele>3</ele><time>2013-03-09T08:26:55Z</time></trkpt>
 <trkpt lat="31.172772400" lon="120.644124900"><ele>3</ele><time>2013-03-09T08:26:59Z</time></trkpt>
 <trkpt lat="31.172968300" lon="120.644088700"><ele>3</ele><time>2013-03-09T08:27:03Z</time></trkpt>
 <trkpt lat="31.173103700" lon="120.644074900"><ele>3</ele><time>2013-03-09T08:27:07Z</time></trkpt>
 <trkpt lat="31.173146600" lon="120.644065400"><ele>4</ele><time>2013-03-09T08:27:11Z</time></trkpt>
 <trkpt lat="31.173258300" lon="120.644049100"><ele>4</ele><time>2013-03-09T08:27:15Z</time></trkpt>
 <trkpt lat="31.173557800" lon="120.644030400"><ele>5</ele><time>2013-03-09T08:27:19Z</time></trkpt>
 <trkpt lat="31.174042900" lon="120.644017000"><ele>5</ele><time>2013-03-09T08:27:23Z</time></trkpt>
 <trkpt lat="31.174509900" lon="120.644039900"><ele>5</ele><time>2013-03-09T08:27:27Z</time></trkpt>
 <trkpt lat="31.174852900" lon="120.644060800"><ele>6</ele><time>2013-03-09T08:27:31Z</time></trkpt>
 <trkpt lat="31.175287000" lon="120.644104100"><ele>6</ele><time>2013-03-09T08:27:35Z</time></trkpt>
 <trkpt lat="31.175845800" lon="120.644112800"><ele>6</ele><time>2013-03-09T08:27:39Z</time></trkpt>
 <trkpt lat="31.176420700" lon="120.644108300"><ele>6</ele><time>2013-03-09T08:27:43Z</time></trkpt>
 <trkpt lat="31.176962000" lon="120.644119500"><ele>6</ele><time>2013-03-09T08:27:47Z</time></trkpt>
 <trkpt lat="31.177487800" lon="120.644144900"><ele>6</ele><time>2013-03-09T08:27:51Z</time></trkpt>
 <trkpt lat="31.177993700" lon="120.644170300"><ele>6</ele><time>2013-03-09T08:27:55Z</time></trkpt>
 <trkpt lat="31.178514900" lon="120.644180300"><ele>6</ele><time>2013-03-09T08:27:59Z</time></trkpt>
 <trkpt lat="31.179079900" lon="120.644182900"><ele>6</ele><time>2013-03-09T08:28:03Z</time></trkpt>
 <trkpt lat="31.179642000" lon="120.644212800"><ele>5</ele><time>2013-03-09T08:28:07Z</time></trkpt>
 <trkpt lat="31.180098300" lon="120.644222400"><ele>5</ele><time>2013-03-09T08:28:11Z</time></trkpt>
 <trkpt lat="31.180368300" lon="120.644190800"><ele>4</ele><time>2013-03-09T08:28:15Z</time></trkpt>
 <trkpt lat="31.180499900" lon="120.644181600"><ele>4</ele><time>2013-03-09T08:28:19Z</time></trkpt>
 <trkpt lat="31.180655800" lon="120.644209900"><ele>3</ele><time>2013-03-09T08:28:23Z</time></trkpt>
 <trkpt lat="31.180916200" lon="120.644228700"><ele>2</ele><time>2013-03-09T08:28:27Z</time></trkpt>
 <trkpt lat="31.181263700" lon="120.644229100"><ele>2</ele><time>2013-03-09T08:28:31Z</time></trkpt>
 <trkpt lat="31.181614900" lon="120.644236200"><ele>2</ele><time>2013-03-09T08:28:35Z</time></trkpt>
 <trkpt lat="31.181883300" lon="120.644234500"><ele>2</ele><time>2013-03-09T08:28:39Z</time></trkpt>
 <trkpt lat="31.182202800" lon="120.644237900"><ele>1</ele><time>2013-03-09T08:28:43Z</time></trkpt>
 <trkpt lat="31.182601200" lon="120.644246200"><ele>1</ele><time>2013-03-09T08:28:47Z</time></trkpt>
 <trkpt lat="31.183063200" lon="120.644251600"><ele>1</ele><time>2013-03-09T08:28:51Z</time></trkpt>
 <trkpt lat="31.183567400" lon="120.644249500"><ele>1</ele><time>2013-03-09T08:28:55Z</time></trkpt>
 <trkpt lat="31.184101200" lon="120.644250800"><ele>1</ele><time>2013-03-09T08:28:59Z</time></trkpt>
 <trkpt lat="31.184664900" lon="120.644258700"><ele>1</ele><time>2013-03-09T08:29:03Z</time></trkpt>
 <trkpt lat="31.185222400" lon="120.644280400"><ele>2</ele><time>2013-03-09T08:29:07Z</time></trkpt>
 <trkpt lat="31.185747400" lon="120.644295800"><ele>2</ele><time>2013-03-09T08:29:11Z</time></trkpt>
 <trkpt lat="31.186177800" lon="120.644291200"><ele>2</ele><time>2013-03-09T08:29:15Z</time></trkpt>
 <trkpt lat="31.186430800" lon="120.644276600"><ele>2</ele><time>2013-03-09T08:29:19Z</time></trkpt>
 <trkpt lat="31.186522000" lon="120.644256600"><ele>3</ele><time>2013-03-09T08:29:23Z</time></trkpt>
 <trkpt lat="31.186551200" lon="120.644262000"><ele>3</ele><time>2013-03-09T08:29:27Z</time></trkpt>
 <trkpt lat="31.186555400" lon="120.644269500"><ele>3</ele><time>2013-03-09T08:29:31Z</time></trkpt>
 <trkpt lat="31.186570300" lon="120.644272800"><ele>3</ele><time>2013-03-09T08:29:35Z</time></trkpt>
 <trkpt lat="31.186596600" lon="120.644274100"><ele>3</ele><time>2013-03-09T08:29:39Z</time></trkpt>
 <trkpt lat="31.186763700" lon="120.644293200"><ele>4</ele><time>2013-03-09T08:29:43Z</time></trkpt>
 <trkpt lat="31.187057800" lon="120.644305800"><ele>4</ele><time>2013-03-09T08:29:47Z</time></trkpt>
 <trkpt lat="31.187328700" lon="120.644325800"><ele>4</ele><time>2013-03-09T08:29:51Z</time></trkpt>
 <trkpt lat="31.187601200" lon="120.644344500"><ele>5</ele><time>2013-03-09T08:29:55Z</time></trkpt>
 <trkpt lat="31.187917900" lon="120.644351200"><ele>5</ele><time>2013-03-09T08:29:59Z</time></trkpt>
 <trkpt lat="31.188253700" lon="120.644347000"><ele>6</ele><time>2013-03-09T08:30:03Z</time></trkpt>
 <trkpt lat="31.188580300" lon="120.644350800"><ele>6</ele><time>2013-03-09T08:30:07Z</time></trkpt>
 <trkpt lat="31.188806200" lon="120.644343300"><ele>7</ele><time>2013-03-09T08:30:11Z</time></trkpt>
 <trkpt lat="31.188953700" lon="120.644330300"><ele>7</ele><time>2013-03-09T08:30:15Z</time></trkpt>
 <trkpt lat="31.189088700" lon="120.644343300"><ele>7</ele><time>2013-03-09T08:30:19Z</time></trkpt>
 <trkpt lat="31.189256600" lon="120.644349100"><ele>8</ele><time>2013-03-09T08:30:23Z</time></trkpt>
 <trkpt lat="31.189438300" lon="120.644359500"><ele>8</ele><time>2013-03-09T08:30:27Z</time></trkpt>
 <trkpt lat="31.189615400" lon="120.644346200"><ele>8</ele><time>2013-03-09T08:30:31Z</time></trkpt>
 <trkpt lat="31.189813700" lon="120.644333300"><ele>8</ele><time>2013-03-09T08:30:35Z</time></trkpt>
 <trkpt lat="31.190081600" lon="120.644345700"><ele>8</ele><time>2013-03-09T08:30:39Z</time></trkpt>
 <trkpt lat="31.190403700" lon="120.644350800"><ele>8</ele><time>2013-03-09T08:30:43Z</time></trkpt>
 <trkpt lat="31.190728300" lon="120.644358700"><ele>8</ele><time>2013-03-09T08:30:47Z</time></trkpt>
 <trkpt lat="31.191113300" lon="120.644377400"><ele>7</ele><time>2013-03-09T08:30:51Z</time></trkpt>
 <trkpt lat="31.191549900" lon="120.644392000"><ele>7</ele><time>2013-03-09T08:30:55Z</time></trkpt>
 <trkpt lat="31.192044900" lon="120.644393300"><ele>6</ele><time>2013-03-09T08:30:59Z</time></trkpt>
 <trkpt lat="31.192533700" lon="120.644399900"><ele>5</ele><time>2013-03-09T08:31:03Z</time></trkpt>
 <trkpt lat="31.192899900" lon="120.644399900"><ele>5</ele><time>2013-03-09T08:31:07Z</time></trkpt>
 <trkpt lat="31.193057400" lon="120.644392000"><ele>4</ele><time>2013-03-09T08:31:11Z</time></trkpt>
 <trkpt lat="31.193086600" lon="120.644383700"><ele>4</ele><time>2013-03-09T08:31:15Z</time></trkpt>
 <trkpt lat="31.193092000" lon="120.644387400"><ele>3</ele><time>2013-03-09T08:31:19Z</time></trkpt>
 <trkpt lat="31.193090000" lon="120.644394100"><ele>3</ele><time>2013-03-09T08:31:23Z</time></trkpt>
 <trkpt lat="31.193090000" lon="120.644394100"><ele>2</ele><time>2013-03-09T08:31:27Z</time></trkpt>
 <trkpt lat="31.193116200" lon="120.644394100"><ele>2</ele><time>2013-03-09T08:31:31Z</time></trkpt>
 <trkpt lat="31.193297800" lon="120.644385800"><ele>1</ele><time>2013-03-09T08:31:35Z</time></trkpt>
 <trkpt lat="31.193529900" lon="120.644392400"><ele>1</ele><time>2013-03-09T08:31:39Z</time></trkpt>
 <trkpt lat="31.193810800" lon="120.644401600"><ele>1</ele><time>2013-03-09T08:31:43Z</time></trkpt>
 <trkpt lat="31.194177400" lon="120.644417000"><ele>1</ele><time>2013-03-09T08:31:47Z</time></trkpt>
 <trkpt lat="31.194615800" lon="120.644422800"><ele>1</ele><time>2013-03-09T08:31:51Z</time></trkpt>
 <trkpt lat="31.195089100" lon="120.644438300"><ele>0</ele><time>2013-03-09T08:31:55Z</time></trkpt>
 <trkpt lat="31.195580400" lon="120.644469100"><ele>0</ele><time>2013-03-09T08:31:59Z</time></trkpt>
 <trkpt lat="31.196062900" lon="120.644485800"><ele>0</ele><time>2013-03-09T08:32:03Z</time></trkpt>
 <trkpt lat="31.196571600" lon="120.644502800"><ele>0</ele><time>2013-03-09T08:32:07Z</time></trkpt>
 <trkpt lat="31.197058700" lon="120.644507000"><ele>0</ele><time>2013-03-09T08:32:11Z</time></trkpt>
 <trkpt lat="31.197519100" lon="120.644521600"><ele>0</ele><time>2013-03-09T08:32:15Z</time></trkpt>
 <trkpt lat="31.197958200" lon="120.644550300"><ele>0</ele><time>2013-03-09T08:32:19Z</time></trkpt>
 <trkpt lat="31.198429500" lon="120.644559900"><ele>0</ele><time>2013-03-09T08:32:23Z</time></trkpt>
 <trkpt lat="31.198947900" lon="120.644567800"><ele>0</ele><time>2013-03-09T08:32:27Z</time></trkpt>
 <trkpt lat="31.199475300" lon="120.644580400"><ele>0</ele><time>2013-03-09T08:32:31Z</time></trkpt>
 <trkpt lat="31.199982000" lon="120.644589100"><ele>0</ele><time>2013-03-09T08:32:35Z</time></trkpt>
 <trkpt lat="31.200507400" lon="120.644595800"><ele>0</ele><time>2013-03-09T08:32:39Z</time></trkpt>
 <trkpt lat="31.201055400" lon="120.644609500"><ele>0</ele><time>2013-03-09T08:32:43Z</time></trkpt>
 <trkpt lat="31.201566200" lon="120.644629100"><ele>0</ele><time>2013-03-09T08:32:47Z</time></trkpt>
 <trkpt lat="31.202037900" lon="120.644645800"><ele>0</ele><time>2013-03-09T08:32:51Z</time></trkpt>
 <trkpt lat="31.202603700" lon="120.644659500"><ele>0</ele><time>2013-03-09T08:32:55Z</time></trkpt>
 <trkpt lat="31.203226200" lon="120.644672400"><ele>0</ele><time>2013-03-09T08:32:59Z</time></trkpt>
 <trkpt lat="31.203878300" lon="120.644683700"><ele>1</ele><time>2013-03-09T08:33:03Z</time></trkpt>
 <trkpt lat="31.204520800" lon="120.644700800"><ele>1</ele><time>2013-03-09T08:33:07Z</time></trkpt>
 <trkpt lat="31.205157400" lon="120.644713700"><ele>1</ele><time>2013-03-09T08:33:11Z</time></trkpt>
 <trkpt lat="31.205781600" lon="120.644717400"><ele>1</ele><time>2013-03-09T08:33:15Z</time></trkpt>
 <trkpt lat="31.206413300" lon="120.644732400"><ele>2</ele><time>2013-03-09T08:33:19Z</time></trkpt>
 <trkpt lat="31.207019500" lon="120.644748700"><ele>2</ele><time>2013-03-09T08:33:23Z</time></trkpt>
 <trkpt lat="31.207509100" lon="120.644746600"><ele>2</ele><time>2013-03-09T08:33:27Z</time></trkpt>
 <trkpt lat="31.207819100" lon="120.644737800"><ele>2</ele><time>2013-03-09T08:33:31Z</time></trkpt>
 <trkpt lat="31.207944100" lon="120.644726200"><ele>2</ele><time>2013-03-09T08:33:35Z</time></trkpt>
 <trkpt lat="31.207964500" lon="120.644722400"><ele>2</ele><time>2013-03-09T08:33:39Z</time></trkpt>
 <trkpt lat="31.207964500" lon="120.644722400"><ele>1</ele><time>2013-03-09T08:33:43Z</time></trkpt>
 <trkpt lat="31.207964500" lon="120.644722400"><ele>1</ele><time>2013-03-09T08:33:47Z</time></trkpt>
 <trkpt lat="31.207964500" lon="120.644722400"><ele>1</ele><time>2013-03-09T08:33:51Z</time></trkpt>
 <trkpt lat="31.207964500" lon="120.644722400"><ele>1</ele><time>2013-03-09T08:33:55Z</time></trkpt>
 <trkpt lat="31.207964500" lon="120.644722400"><ele>1</ele><time>2013-03-09T08:33:59Z</time></trkpt>
 <trkpt lat="31.207972000" lon="120.644727000"><ele>1</ele><time>2013-03-09T08:34:03Z</time></trkpt>
 <trkpt lat="31.208164900" lon="120.644775400"><ele>1</ele><time>2013-03-09T08:34:07Z</time></trkpt>
 <trkpt lat="31.208534900" lon="120.644792400"><ele>1</ele><time>2013-03-09T08:34:11Z</time></trkpt>
 <trkpt lat="31.208990800" lon="120.644787400"><ele>2</ele><time>2013-03-09T08:34:15Z</time></trkpt>
 <trkpt lat="31.209489500" lon="120.644777900"><ele>2</ele><time>2013-03-09T08:34:19Z</time></trkpt>
 <trkpt lat="31.209993700" lon="120.644778300"><ele>2</ele><time>2013-03-09T08:34:23Z</time></trkpt>
 <trkpt lat="31.210489900" lon="120.644778700"><ele>3</ele><time>2013-03-09T08:34:27Z</time></trkpt>
 <trkpt lat="31.211047000" lon="120.644784900"><ele>3</ele><time>2013-03-09T08:34:31Z</time></trkpt>
 <trkpt lat="31.211604900" lon="120.644795300"><ele>3</ele><time>2013-03-09T08:34:35Z</time></trkpt>
 <trkpt lat="31.212147000" lon="120.644804500"><ele>3</ele><time>2013-03-09T08:34:39Z</time></trkpt>
 <trkpt lat="31.212707400" lon="120.644810300"><ele>4</ele><time>2013-03-09T08:34:43Z</time></trkpt>
 <trkpt lat="31.213337000" lon="120.644820800"><ele>4</ele><time>2013-03-09T08:34:47Z</time></trkpt>
 <trkpt lat="31.214051200" lon="120.644833300"><ele>5</ele><time>2013-03-09T08:34:51Z</time></trkpt>
 <trkpt lat="31.214807400" lon="120.644826600"><ele>6</ele><time>2013-03-09T08:34:55Z</time></trkpt>
 <trkpt lat="31.215550800" lon="120.644773700"><ele>6</ele><time>2013-03-09T08:34:59Z</time></trkpt>
 <trkpt lat="31.216291200" lon="120.644602400"><ele>7</ele><time>2013-03-09T08:35:03Z</time></trkpt>
 <trkpt lat="31.216939900" lon="120.644407400"><ele>8</ele><time>2013-03-09T08:35:07Z</time></trkpt>
 <trkpt lat="31.217605800" lon="120.644193300"><ele>8</ele><time>2013-03-09T08:35:11Z</time></trkpt>
 <trkpt lat="31.218299100" lon="120.643977800"><ele>9</ele><time>2013-03-09T08:35:15Z</time></trkpt>
 <trkpt lat="31.219009500" lon="120.643735800"><ele>9</ele><time>2013-03-09T08:35:19Z</time></trkpt>
 <trkpt lat="31.219760300" lon="120.643486200"><ele>9</ele><time>2013-03-09T08:35:23Z</time></trkpt>
 <trkpt lat="31.220587900" lon="120.643246600"><ele>9</ele><time>2013-03-09T08:35:27Z</time></trkpt>
 <trkpt lat="31.221437000" lon="120.642974100"><ele>10</ele><time>2013-03-09T08:35:31Z</time></trkpt>
 <trkpt lat="31.222247800" lon="120.642627400"><ele>10</ele><time>2013-03-09T08:35:35Z</time></trkpt>
 <trkpt lat="31.222993700" lon="120.642290400"><ele>10</ele><time>2013-03-09T08:35:39Z</time></trkpt>
 <trkpt lat="31.223657400" lon="120.642105400"><ele>10</ele><time>2013-03-09T08:35:43Z</time></trkpt>
 <trkpt lat="31.224247800" lon="120.642039900"><ele>11</ele><time>2013-03-09T08:35:47Z</time></trkpt>
 <trkpt lat="31.224789900" lon="120.642031200"><ele>11</ele><time>2013-03-09T08:35:51Z</time></trkpt>
 <trkpt lat="31.225262400" lon="120.642038700"><ele>11</ele><time>2013-03-09T08:35:55Z</time></trkpt>
 <trkpt lat="31.225719100" lon="120.642046200"><ele>11</ele><time>2013-03-09T08:35:59Z</time></trkpt>
 <trkpt lat="31.226134100" lon="120.642064900"><ele>11</ele><time>2013-03-09T08:36:03Z</time></trkpt>
 <trkpt lat="31.226533700" lon="120.642084500"><ele>12</ele><time>2013-03-09T08:36:07Z</time></trkpt>
 <trkpt lat="31.226957400" lon="120.642083300"><ele>12</ele><time>2013-03-09T08:36:11Z</time></trkpt>
 <trkpt lat="31.227387000" lon="120.642079100"><ele>13</ele><time>2013-03-09T08:36:15Z</time></trkpt>
 <trkpt lat="31.227815300" lon="120.642086600"><ele>14</ele><time>2013-03-09T08:36:19Z</time></trkpt>
 <trkpt lat="31.228243700" lon="120.642088700"><ele>15</ele><time>2013-03-09T08:36:23Z</time></trkpt>
 <trkpt lat="31.228694500" lon="120.642086200"><ele>16</ele><time>2013-03-09T08:36:27Z</time></trkpt>
 <trkpt lat="31.229173700" lon="120.642087400"><ele>17</ele><time>2013-03-09T08:36:31Z</time></trkpt>
 <trkpt lat="31.229734100" lon="120.642112900"><ele>17</ele><time>2013-03-09T08:36:35Z</time></trkpt>
 <trkpt lat="31.230390300" lon="120.642152900"><ele>18</ele><time>2013-03-09T08:36:39Z</time></trkpt>
 <trkpt lat="31.231047900" lon="120.642167400"><ele>18</ele><time>2013-03-09T08:36:43Z</time></trkpt>
 <trkpt lat="31.231667900" lon="120.642168200"><ele>18</ele><time>2013-03-09T08:36:47Z</time></trkpt>
 <trkpt lat="31.232159500" lon="120.642175000"><ele>18</ele><time>2013-03-09T08:36:51Z</time></trkpt>
 <trkpt lat="31.232516200" lon="120.642174900"><ele>18</ele><time>2013-03-09T08:36:55Z</time></trkpt>
 <trkpt lat="31.232663300" lon="120.642171200"><ele>18</ele><time>2013-03-09T08:36:59Z</time></trkpt>
 <trkpt lat="31.232655800" lon="120.642169500"><ele>17</ele><time>2013-03-09T08:37:03Z</time></trkpt>
 <trkpt lat="31.232655800" lon="120.642169500"><ele>17</ele><time>2013-03-09T08:37:07Z</time></trkpt>
 <trkpt lat="31.232709900" lon="120.642182800"><ele>16</ele><time>2013-03-09T08:37:11Z</time></trkpt>
 <trkpt lat="31.232907000" lon="120.642185400"><ele>16</ele><time>2013-03-09T08:37:15Z</time></trkpt>
 <trkpt lat="31.233089900" lon="120.642184100"><ele>15</ele><time>2013-03-09T08:37:19Z</time></trkpt>
 <trkpt lat="31.233290800" lon="120.642191600"><ele>14</ele><time>2013-03-09T08:37:23Z</time></trkpt>
 <trkpt lat="31.233574100" lon="120.642199100"><ele>13</ele><time>2013-03-09T08:37:27Z</time></trkpt>
 <trkpt lat="31.233924900" lon="120.642183300"><ele>13</ele><time>2013-03-09T08:37:31Z</time></trkpt>
 <trkpt lat="31.234277800" lon="120.642172500"><ele>12</ele><time>2013-03-09T08:37:35Z</time></trkpt>
 <trkpt lat="31.234672000" lon="120.642160800"><ele>12</ele><time>2013-03-09T08:37:39Z</time></trkpt>
 <trkpt lat="31.235086200" lon="120.642159500"><ele>11</ele><time>2013-03-09T08:37:43Z</time></trkpt>
 <trkpt lat="31.235514900" lon="120.642157000"><ele>11</ele><time>2013-03-09T08:37:47Z</time></trkpt>
 <trkpt lat="31.235987000" lon="120.642161200"><ele>11</ele><time>2013-03-09T08:37:51Z</time></trkpt>
 <trkpt lat="31.236534100" lon="120.642180400"><ele>11</ele><time>2013-03-09T08:37:55Z</time></trkpt>
 <trkpt lat="31.237049100" lon="120.642176200"><ele>11</ele><time>2013-03-09T08:37:59Z</time></trkpt>
 <trkpt lat="31.237410800" lon="120.642167900"><ele>11</ele><time>2013-03-09T08:38:03Z</time></trkpt>
 <trkpt lat="31.237583300" lon="120.642159900"><ele>10</ele><time>2013-03-09T08:38:07Z</time></trkpt>
 <trkpt lat="31.237589100" lon="120.642179500"><ele>10</ele><time>2013-03-09T08:38:11Z</time></trkpt>
 <trkpt lat="31.237574500" lon="120.642178700"><ele>10</ele><time>2013-03-09T08:38:15Z</time></trkpt>
 <trkpt lat="31.237570000" lon="120.642175000"><ele>10</ele><time>2013-03-09T08:38:19Z</time></trkpt>
 <trkpt lat="31.237570000" lon="120.642175000"><ele>9</ele><time>2013-03-09T08:38:23Z</time></trkpt>
 <trkpt lat="31.237570000" lon="120.642175000"><ele>9</ele><time>2013-03-09T08:38:27Z</time></trkpt>
 <trkpt lat="31.237570000" lon="120.642175000"><ele>9</ele><time>2013-03-09T08:38:31Z</time></trkpt>
 <trkpt lat="31.237570000" lon="120.642175000"><ele>9</ele><time>2013-03-09T08:38:35Z</time></trkpt>
 <trkpt lat="31.237570000" lon="120.642175000"><ele>9</ele><time>2013-03-09T08:38:39Z</time></trkpt>
 <trkpt lat="31.237570000" lon="120.642175000"><ele>9</ele><time>2013-03-09T08:38:43Z</time></trkpt>
 <trkpt lat="31.237570000" lon="120.642175000"><ele>9</ele><time>2013-03-09T08:38:47Z</time></trkpt>
 <trkpt lat="31.237570000" lon="120.642175000"><ele>9</ele><time>2013-03-09T08:38:51Z</time></trkpt>
 <trkpt lat="31.237570000" lon="120.642175000"><ele>9</ele><time>2013-03-09T08:38:55Z</time></trkpt>
 <trkpt lat="31.237570000" lon="120.642175000"><ele>9</ele><time>2013-03-09T08:38:59Z</time></trkpt>
 <trkpt lat="31.237564500" lon="120.642175000"><ele>9</ele><time>2013-03-09T08:39:03Z</time></trkpt>
 <trkpt lat="31.237564500" lon="120.642175000"><ele>9</ele><time>2013-03-09T08:39:07Z</time></trkpt>
 <trkpt lat="31.237564500" lon="120.642175000"><ele>9</ele><time>2013-03-09T08:39:11Z</time></trkpt>
 <trkpt lat="31.237564500" lon="120.642175000"><ele>9</ele><time>2013-03-09T08:39:15Z</time></trkpt>
 <trkpt lat="31.237564500" lon="120.642175000"><ele>9</ele><time>2013-03-09T08:39:19Z</time></trkpt>
 <trkpt lat="31.237564500" lon="120.642175000"><ele>9</ele><time>2013-03-09T08:39:23Z</time></trkpt>
 <trkpt lat="31.237582800" lon="120.642180800"><ele>9</ele><time>2013-03-09T08:39:27Z</time></trkpt>
 <trkpt lat="31.237714100" lon="120.642181600"><ele>9</ele><time>2013-03-09T08:39:31Z</time></trkpt>
 <trkpt lat="31.237950800" lon="120.642181200"><ele>9</ele><time>2013-03-09T08:39:35Z</time></trkpt>
 <trkpt lat="31.238222800" lon="120.642170800"><ele>9</ele><time>2013-03-09T08:39:39Z</time></trkpt>
 <trkpt lat="31.238467800" lon="120.642125800"><ele>9</ele><time>2013-03-09T08:39:43Z</time></trkpt>
 <trkpt lat="31.238785400" lon="120.642080400"><ele>8</ele><time>2013-03-09T08:39:47Z</time></trkpt>
 <trkpt lat="31.239221200" lon="120.642013300"><ele>8</ele><time>2013-03-09T08:39:51Z</time></trkpt>
 <trkpt lat="31.239774900" lon="120.641933700"><ele>8</ele><time>2013-03-09T08:39:55Z</time></trkpt>
 <trkpt lat="31.240392800" lon="120.641802000"><ele>8</ele><time>2013-03-09T08:39:59Z</time></trkpt>
 <trkpt lat="31.240994500" lon="120.641659900"><ele>8</ele><time>2013-03-09T08:40:03Z</time></trkpt>
 <trkpt lat="31.241630300" lon="120.641529900"><ele>8</ele><time>2013-03-09T08:40:07Z</time></trkpt>
 <trkpt lat="31.242248300" lon="120.641393300"><ele>8</ele><time>2013-03-09T08:40:11Z</time></trkpt>
 <trkpt lat="31.242816600" lon="120.641255800"><ele>8</ele><time>2013-03-09T08:40:15Z</time></trkpt>
 <trkpt lat="31.243322000" lon="120.641129500"><ele>8</ele><time>2013-03-09T08:40:19Z</time></trkpt>
 <trkpt lat="31.243687400" lon="120.641019100"><ele>8</ele><time>2013-03-09T08:40:23Z</time></trkpt>
 <trkpt lat="31.244092000" lon="120.640928700"><ele>7</ele><time>2013-03-09T08:40:27Z</time></trkpt>
 <trkpt lat="31.244652900" lon="120.640828700"><ele>7</ele><time>2013-03-09T08:40:31Z</time></trkpt>
 <trkpt lat="31.245272800" lon="120.640699900"><ele>7</ele><time>2013-03-09T08:40:35Z</time></trkpt>
 <trkpt lat="31.245810400" lon="120.640582900"><ele>6</ele><time>2013-03-09T08:40:39Z</time></trkpt>
 <trkpt lat="31.246229100" lon="120.640509100"><ele>6</ele><time>2013-03-09T08:40:43Z</time></trkpt>
 <trkpt lat="31.246469100" lon="120.640482400"><ele>6</ele><time>2013-03-09T08:40:47Z</time></trkpt>
 <trkpt lat="31.246541200" lon="120.640534100"><ele>6</ele><time>2013-03-09T08:40:51Z</time></trkpt>
 <trkpt lat="31.246551600" lon="120.640595300"><ele>6</ele><time>2013-03-09T08:40:55Z</time></trkpt>
 <trkpt lat="31.246553700" lon="120.640603300"><ele>5</ele><time>2013-03-09T08:40:59Z</time></trkpt>
 <trkpt lat="31.246553700" lon="120.640603300"><ele>5</ele><time>2013-03-09T08:41:03Z</time></trkpt>
 <trkpt lat="31.246553700" lon="120.640603300"><ele>5</ele><time>2013-03-09T08:41:07Z</time></trkpt>
 <trkpt lat="31.246594100" lon="120.640614100"><ele>5</ele><time>2013-03-09T08:41:11Z</time></trkpt>
 <trkpt lat="31.246768700" lon="120.640592000"><ele>5</ele><time>2013-03-09T08:41:15Z</time></trkpt>
 <trkpt lat="31.247079900" lon="120.640506200"><ele>5</ele><time>2013-03-09T08:41:19Z</time></trkpt>
 <trkpt lat="31.247479900" lon="120.640375300"><ele>5</ele><time>2013-03-09T08:41:23Z</time></trkpt>
 <trkpt lat="31.247933700" lon="120.640223200"><ele>5</ele><time>2013-03-09T08:41:27Z</time></trkpt>
 <trkpt lat="31.248345400" lon="120.640116200"><ele>5</ele><time>2013-03-09T08:41:31Z</time></trkpt>
 <trkpt lat="31.248737400" lon="120.640023700"><ele>5</ele><time>2013-03-09T08:41:35Z</time></trkpt>
 <trkpt lat="31.249126600" lon="120.639939100"><ele>5</ele><time>2013-03-09T08:41:39Z</time></trkpt>
 <trkpt lat="31.249496600" lon="120.639863700"><ele>5</ele><time>2013-03-09T08:41:43Z</time></trkpt>
 <trkpt lat="31.249839900" lon="120.639784100"><ele>5</ele><time>2013-03-09T08:41:47Z</time></trkpt>
 <trkpt lat="31.250147900" lon="120.639708700"><ele>5</ele><time>2013-03-09T08:41:51Z</time></trkpt>
 <trkpt lat="31.250448300" lon="120.639641200"><ele>5</ele><time>2013-03-09T08:41:55Z</time></trkpt>
 <trkpt lat="31.250615800" lon="120.639596200"><ele>5</ele><time>2013-03-09T08:41:59Z</time></trkpt>
 <trkpt lat="31.250684900" lon="120.639582800"><ele>5</ele><time>2013-03-09T08:42:03Z</time></trkpt>
 <trkpt lat="31.250830800" lon="120.639559500"><ele>5</ele><time>2013-03-09T08:42:07Z</time></trkpt>
 <trkpt lat="31.251059500" lon="120.639513300"><ele>5</ele><time>2013-03-09T08:42:11Z</time></trkpt>
 <trkpt lat="31.251264100" lon="120.639473300"><ele>5</ele><time>2013-03-09T08:42:15Z</time></trkpt>
 <trkpt lat="31.251388700" lon="120.639451600"><ele>5</ele><time>2013-03-09T08:42:19Z</time></trkpt>
 <trkpt lat="31.251579500" lon="120.639424500"><ele>5</ele><time>2013-03-09T08:42:23Z</time></trkpt>
 <trkpt lat="31.251851200" lon="120.639372900"><ele>5</ele><time>2013-03-09T08:42:27Z</time></trkpt>
 <trkpt lat="31.252082800" lon="120.639331200"><ele>5</ele><time>2013-03-09T08:42:31Z</time></trkpt>
 <trkpt lat="31.252303700" lon="120.639287900"><ele>5</ele><time>2013-03-09T08:42:35Z</time></trkpt>
 <trkpt lat="31.252565300" lon="120.639210800"><ele>5</ele><time>2013-03-09T08:42:39Z</time></trkpt>
 <trkpt lat="31.252893300" lon="120.639052800"><ele>6</ele><time>2013-03-09T08:42:43Z</time></trkpt>
 <trkpt lat="31.253236600" lon="120.638812000"><ele>6</ele><time>2013-03-09T08:42:47Z</time></trkpt>
 <trkpt lat="31.253527800" lon="120.638539900"><ele>6</ele><time>2013-03-09T08:42:51Z</time></trkpt>
 <trkpt lat="31.253774900" lon="120.638267800"><ele>7</ele><time>2013-03-09T08:42:55Z</time></trkpt>
 <trkpt lat="31.254032000" lon="120.638015300"><ele>7</ele><time>2013-03-09T08:42:59Z</time></trkpt>
 <trkpt lat="31.254305800" lon="120.637810400"><ele>7</ele><time>2013-03-09T08:43:03Z</time></trkpt>
 <trkpt lat="31.254597900" lon="120.637627900"><ele>8</ele><time>2013-03-09T08:43:07Z</time></trkpt>
 <trkpt lat="31.254912000" lon="120.637492800"><ele>8</ele><time>2013-03-09T08:43:11Z</time></trkpt>
 <trkpt lat="31.255275800" lon="120.637399500"><ele>8</ele><time>2013-03-09T08:43:15Z</time></trkpt>
 <trkpt lat="31.255657400" lon="120.637359100"><ele>9</ele><time>2013-03-09T08:43:19Z</time></trkpt>
 <trkpt lat="31.256063300" lon="120.637332400"><ele>9</ele><time>2013-03-09T08:43:23Z</time></trkpt>
 <trkpt lat="31.256413300" lon="120.637303300"><ele>10</ele><time>2013-03-09T08:43:27Z</time></trkpt>
 <trkpt lat="31.256706600" lon="120.637272400"><ele>11</ele><time>2013-03-09T08:43:31Z</time></trkpt>
 <trkpt lat="31.257037800" lon="120.637251200"><ele>11</ele><time>2013-03-09T08:43:35Z</time></trkpt>
 <trkpt lat="31.257420800" lon="120.637231200"><ele>12</ele><time>2013-03-09T08:43:39Z</time></trkpt>
 <trkpt lat="31.257814500" lon="120.637203300"><ele>13</ele><time>2013-03-09T08:43:43Z</time></trkpt>
 <trkpt lat="31.258171600" lon="120.637170300"><ele>13</ele><time>2013-03-09T08:43:47Z</time></trkpt>
 <trkpt lat="31.258469900" lon="120.637166600"><ele>14</ele><time>2013-03-09T08:43:51Z</time></trkpt>
 <trkpt lat="31.258754100" lon="120.637169900"><ele>14</ele><time>2013-03-09T08:43:55Z</time></trkpt>
 <trkpt lat="31.259044900" lon="120.637158300"><ele>15</ele><time>2013-03-09T08:43:59Z</time></trkpt>
 <trkpt lat="31.259348700" lon="120.637149100"><ele>15</ele><time>2013-03-09T08:44:03Z</time></trkpt>
 <trkpt lat="31.259662900" lon="120.637107900"><ele>15</ele><time>2013-03-09T08:44:07Z</time></trkpt>
 <trkpt lat="31.259956200" lon="120.636984900"><ele>16</ele><time>2013-03-09T08:44:11Z</time></trkpt>
 <trkpt lat="31.260222400" lon="120.636831600"><ele>16</ele><time>2013-03-09T08:44:15Z</time></trkpt>
 <trkpt lat="31.260552800" lon="120.636651600"><ele>16</ele><time>2013-03-09T08:44:19Z</time></trkpt>
 <trkpt lat="31.260961600" lon="120.636459100"><ele>16</ele><time>2013-03-09T08:44:23Z</time></trkpt>
 <trkpt lat="31.261412000" lon="120.636317800"><ele>16</ele><time>2013-03-09T08:44:27Z</time></trkpt>
 <trkpt lat="31.261937800" lon="120.636239500"><ele>15</ele><time>2013-03-09T08:44:31Z</time></trkpt>
 <trkpt lat="31.262501600" lon="120.636183300"><ele>15</ele><time>2013-03-09T08:44:35Z</time></trkpt>
 <trkpt lat="31.263091200" lon="120.636140300"><ele>14</ele><time>2013-03-09T08:44:39Z</time></trkpt>
 <trkpt lat="31.263664900" lon="120.636084100"><ele>13</ele><time>2013-03-09T08:44:43Z</time></trkpt>
 <trkpt lat="31.264196200" lon="120.636037400"><ele>13</ele><time>2013-03-09T08:44:47Z</time></trkpt>
 <trkpt lat="31.264712400" lon="120.635998700"><ele>12</ele><time>2013-03-09T08:44:51Z</time></trkpt>
 <trkpt lat="31.265223700" lon="120.635957400"><ele>11</ele><time>2013-03-09T08:44:55Z</time></trkpt>
 <trkpt lat="31.265719500" lon="120.635906200"><ele>11</ele><time>2013-03-09T08:44:59Z</time></trkpt>
 <trkpt lat="31.266173300" lon="120.635830400"><ele>10</ele><time>2013-03-09T08:45:03Z</time></trkpt>
 <trkpt lat="31.266634900" lon="120.635762800"><ele>9</ele><time>2013-03-09T08:45:07Z</time></trkpt>
 <trkpt lat="31.267041600" lon="120.635684900"><ele>9</ele><time>2013-03-09T08:45:11Z</time></trkpt>
 <trkpt lat="31.267162400" lon="120.635639500"><ele>8</ele><time>2013-03-09T08:45:15Z</time></trkpt>
 <trkpt lat="31.267165400" lon="120.635645800"><ele>7</ele><time>2013-03-09T08:45:19Z</time></trkpt>
 <trkpt lat="31.267165400" lon="120.635645800"><ele>7</ele><time>2013-03-09T08:45:23Z</time></trkpt>
 <trkpt lat="31.267165400" lon="120.635645800"><ele>7</ele><time>2013-03-09T08:45:27Z</time></trkpt>
 <trkpt lat="31.267165400" lon="120.635645800"><ele>7</ele><time>2013-03-09T08:45:31Z</time></trkpt>
 <trkpt lat="31.267165400" lon="120.635645800"><ele>7</ele><time>2013-03-09T08:45:35Z</time></trkpt>
 <trkpt lat="31.267165400" lon="120.635645800"><ele>7</ele><time>2013-03-09T08:45:39Z</time></trkpt>
 <trkpt lat="31.267165400" lon="120.635645800"><ele>7</ele><time>2013-03-09T08:45:43Z</time></trkpt>
 <trkpt lat="31.267165400" lon="120.635645800"><ele>7</ele><time>2013-03-09T08:45:47Z</time></trkpt>
 <trkpt lat="31.267165400" lon="120.635645800"><ele>7</ele><time>2013-03-09T08:45:51Z</time></trkpt>
 <trkpt lat="31.267165400" lon="120.635645800"><ele>7</ele><time>2013-03-09T08:45:55Z</time></trkpt>
 <trkpt lat="31.267165400" lon="120.635645800"><ele>8</ele><time>2013-03-09T08:45:59Z</time></trkpt>
 <trkpt lat="31.267165400" lon="120.635645800"><ele>8</ele><time>2013-03-09T08:46:03Z</time></trkpt>
 <trkpt lat="31.267165400" lon="120.635645800"><ele>8</ele><time>2013-03-09T08:46:07Z</time></trkpt>
 <trkpt lat="31.267175300" lon="120.635649900"><ele>8</ele><time>2013-03-09T08:46:11Z</time></trkpt>
 <trkpt lat="31.267391600" lon="120.635626200"><ele>8</ele><time>2013-03-09T08:46:15Z</time></trkpt>
 <trkpt lat="31.267803300" lon="120.635554500"><ele>8</ele><time>2013-03-09T08:46:19Z</time></trkpt>
 <trkpt lat="31.268237400" lon="120.635483700"><ele>9</ele><time>2013-03-09T08:46:23Z</time></trkpt>
 <trkpt lat="31.268545800" lon="120.635423700"><ele>9</ele><time>2013-03-09T08:46:27Z</time></trkpt>
 <trkpt lat="31.268840400" lon="120.635366600"><ele>9</ele><time>2013-03-09T08:46:31Z</time></trkpt>
 <trkpt lat="31.269200300" lon="120.635330300"><ele>9</ele><time>2013-03-09T08:46:35Z</time></trkpt>
 <trkpt lat="31.269439500" lon="120.635295800"><ele>10</ele><time>2013-03-09T08:46:39Z</time></trkpt>
 <trkpt lat="31.269563700" lon="120.635266600"><ele>10</ele><time>2013-03-09T08:46:43Z</time></trkpt>
 <trkpt lat="31.269574500" lon="120.635266200"><ele>10</ele><time>2013-03-09T08:46:47Z</time></trkpt>
 <trkpt lat="31.269574500" lon="120.635266200"><ele>10</ele><time>2013-03-09T08:46:51Z</time></trkpt>
 <trkpt lat="31.269577400" lon="120.635259500"><ele>10</ele><time>2013-03-09T08:46:55Z</time></trkpt>
 <trkpt lat="31.269618700" lon="120.635255700"><ele>10</ele><time>2013-03-09T08:46:59Z</time></trkpt>
 <trkpt lat="31.269772400" lon="120.635180800"><ele>10</ele><time>2013-03-09T08:47:03Z</time></trkpt>
 <trkpt lat="31.269877000" lon="120.634959500"><ele>10</ele><time>2013-03-09T08:47:07Z</time></trkpt>
 <trkpt lat="31.269907400" lon="120.634607900"><ele>10</ele><time>2013-03-09T08:47:11Z</time></trkpt>
 <trkpt lat="31.269932400" lon="120.634154500"><ele>10</ele><time>2013-03-09T08:47:15Z</time></trkpt>
 <trkpt lat="31.269955300" lon="120.633644900"><ele>9</ele><time>2013-03-09T08:47:19Z</time></trkpt>
 <trkpt lat="31.269949500" lon="120.633104500"><ele>9</ele><time>2013-03-09T08:47:23Z</time></trkpt>
 <trkpt lat="31.269945400" lon="120.632599500"><ele>9</ele><time>2013-03-09T08:47:27Z</time></trkpt>
 <trkpt lat="31.269936600" lon="120.632177000"><ele>8</ele><time>2013-03-09T08:47:31Z</time></trkpt>
 <trkpt lat="31.269902000" lon="120.631836200"><ele>8</ele><time>2013-03-09T08:47:35Z</time></trkpt>
 <trkpt lat="31.269869100" lon="120.631664900"><ele>8</ele><time>2013-03-09T08:47:39Z</time></trkpt>
 <trkpt lat="31.269865400" lon="120.631656200"><ele>8</ele><time>2013-03-09T08:47:43Z</time></trkpt>
 <trkpt lat="31.269865400" lon="120.631656200"><ele>7</ele><time>2013-03-09T08:47:47Z</time></trkpt>
 <trkpt lat="31.269865400" lon="120.631656200"><ele>7</ele><time>2013-03-09T08:47:51Z</time></trkpt>
 <trkpt lat="31.269865400" lon="120.631656200"><ele>7</ele><time>2013-03-09T08:47:55Z</time></trkpt>
 <trkpt lat="31.269865400" lon="120.631656200"><ele>7</ele><time>2013-03-09T08:47:59Z</time></trkpt>
 <trkpt lat="31.269865400" lon="120.631656200"><ele>7</ele><time>2013-03-09T08:48:03Z</time></trkpt>
 <trkpt lat="31.269865400" lon="120.631656200"><ele>7</ele><time>2013-03-09T08:48:07Z</time></trkpt>
 <trkpt lat="31.269862400" lon="120.631650800"><ele>7</ele><time>2013-03-09T08:48:11Z</time></trkpt>
 <trkpt lat="31.269852800" lon="120.631600300"><ele>7</ele><time>2013-03-09T08:48:15Z</time></trkpt>
 <trkpt lat="31.269811200" lon="120.631244100"><ele>7</ele><time>2013-03-09T08:48:19Z</time></trkpt>
 <trkpt lat="31.269801200" lon="120.630681600"><ele>8</ele><time>2013-03-09T08:48:23Z</time></trkpt>
 <trkpt lat="31.269761200" lon="120.630086200"><ele>8</ele><time>2013-03-09T08:48:27Z</time></trkpt>
 <trkpt lat="31.269705800" lon="120.629389900"><ele>9</ele><time>2013-03-09T08:48:31Z</time></trkpt>
 <trkpt lat="31.269656200" lon="120.628684500"><ele>9</ele><time>2013-03-09T08:48:35Z</time></trkpt>
 <trkpt lat="31.269624100" lon="120.628085400"><ele>10</ele><time>2013-03-09T08:48:39Z</time></trkpt>
 <trkpt lat="31.269606200" lon="120.627639100"><ele>10</ele><time>2013-03-09T08:48:43Z</time></trkpt>
 <trkpt lat="31.269624100" lon="120.627371200"><ele>11</ele><time>2013-03-09T08:48:47Z</time></trkpt>
 <trkpt lat="31.269803700" lon="120.627297800"><ele>12</ele><time>2013-03-09T08:48:51Z</time></trkpt>
 <trkpt lat="31.270137400" lon="120.627290800"><ele>13</ele><time>2013-03-09T08:48:55Z</time></trkpt>
 <trkpt lat="31.270511600" lon="120.627279100"><ele>13</ele><time>2013-03-09T08:48:59Z</time></trkpt>
 <trkpt lat="31.270787000" lon="120.627240300"><ele>14</ele><time>2013-03-09T08:49:03Z</time></trkpt>
 <trkpt lat="31.270978700" lon="120.627205800"><ele>15</ele><time>2013-03-09T08:49:07Z</time></trkpt>
 <trkpt lat="31.271166600" lon="120.627167400"><ele>16</ele><time>2013-03-09T08:49:11Z</time></trkpt>
 <trkpt lat="31.271352000" lon="120.627134100"><ele>17</ele><time>2013-03-09T08:49:15Z</time></trkpt>
 <trkpt lat="31.271506200" lon="120.627133700"><ele>18</ele><time>2013-03-09T08:49:19Z</time></trkpt>
 <trkpt lat="31.271653300" lon="120.627127400"><ele>19</ele><time>2013-03-09T08:49:23Z</time></trkpt>
 <trkpt lat="31.271792400" lon="120.627117800"><ele>20</ele><time>2013-03-09T08:49:27Z</time></trkpt>
 <trkpt lat="31.272017000" lon="120.627120700"><ele>21</ele><time>2013-03-09T08:49:31Z</time></trkpt>
 <trkpt lat="31.272290700" lon="120.627087800"><ele>21</ele><time>2013-03-09T08:49:35Z</time></trkpt>
 <trkpt lat="31.272570300" lon="120.627037400"><ele>21</ele><time>2013-03-09T08:49:39Z</time></trkpt>
 <trkpt lat="31.272833300" lon="120.627000800"><ele>21</ele><time>2013-03-09T08:49:43Z</time></trkpt>
 <trkpt lat="31.273047000" lon="120.626970300"><ele>21</ele><time>2013-03-09T08:49:47Z</time></trkpt>
 <trkpt lat="31.273201600" lon="120.626956600"><ele>21</ele><time>2013-03-09T08:49:51Z</time></trkpt>
 <trkpt lat="31.273335800" lon="120.626936200"><ele>20</ele><time>2013-03-09T08:49:55Z</time></trkpt>
 <trkpt lat="31.273402800" lon="120.626916200"><ele>20</ele><time>2013-03-09T08:49:59Z</time></trkpt>
 <trkpt lat="31.273446600" lon="120.626894900"><ele>20</ele><time>2013-03-09T08:50:03Z</time></trkpt>
 <trkpt lat="31.273465700" lon="120.626876200"><ele>20</ele><time>2013-03-09T08:50:07Z</time></trkpt>
 <trkpt lat="31.273465700" lon="120.626876200"><ele>19</ele><time>2013-03-09T08:50:11Z</time></trkpt>
 <trkpt lat="31.273465700" lon="120.626876200"><ele>19</ele><time>2013-03-09T08:50:15Z</time></trkpt>
 <trkpt lat="31.273500800" lon="120.626869500"><ele>18</ele><time>2013-03-09T08:50:19Z</time></trkpt>
 <trkpt lat="31.273611200" lon="120.626850000"><ele>18</ele><time>2013-03-09T08:50:23Z</time></trkpt>
 <trkpt lat="31.273703300" lon="120.626801200"><ele>17</ele><time>2013-03-09T08:50:27Z</time></trkpt>
 <trkpt lat="31.273814500" lon="120.626749100"><ele>17</ele><time>2013-03-09T08:50:31Z</time></trkpt>
 <trkpt lat="31.273937400" lon="120.626715800"><ele>17</ele><time>2013-03-09T08:50:35Z</time></trkpt>
 <trkpt lat="31.274114500" lon="120.626685300"><ele>16</ele><time>2013-03-09T08:50:39Z</time></trkpt>
 <trkpt lat="31.274263300" lon="120.626525400"><ele>16</ele><time>2013-03-09T08:50:43Z</time></trkpt>
 <trkpt lat="31.274353700" lon="120.626089900"><ele>16</ele><time>2013-03-09T08:50:47Z</time></trkpt>
 <trkpt lat="31.274383700" lon="120.625666600"><ele>16</ele><time>2013-03-09T08:50:51Z</time></trkpt>
 <trkpt lat="31.274411600" lon="120.625348700"><ele>17</ele><time>2013-03-09T08:50:55Z</time></trkpt>
 <trkpt lat="31.274422400" lon="120.625085800"><ele>17</ele><time>2013-03-09T08:50:59Z</time></trkpt>
 <trkpt lat="31.274447000" lon="120.624802400"><ele>17</ele><time>2013-03-09T08:51:03Z</time></trkpt>
 <trkpt lat="31.274484900" lon="120.624531600"><ele>18</ele><time>2013-03-09T08:51:07Z</time></trkpt>
 <trkpt lat="31.274533300" lon="120.624250400"><ele>18</ele><time>2013-03-09T08:51:11Z</time></trkpt>
 <trkpt lat="31.274575800" lon="120.624019100"><ele>18</ele><time>2013-03-09T08:51:15Z</time></trkpt>
 <trkpt lat="31.274577800" lon="120.623822000"><ele>18</ele><time>2013-03-09T08:51:19Z</time></trkpt>
 <trkpt lat="31.274605800" lon="120.623685800"><ele>18</ele><time>2013-03-09T08:51:23Z</time></trkpt>
 <trkpt lat="31.274724500" lon="120.623593700"><ele>18</ele><time>2013-03-09T08:51:27Z</time></trkpt>
 <trkpt lat="31.275027000" lon="120.623542800"><ele>18</ele><time>2013-03-09T08:51:31Z</time></trkpt>
 <trkpt lat="31.275431600" lon="120.623510300"><ele>18</ele><time>2013-03-09T08:51:35Z</time></trkpt>
 <trkpt lat="31.275737400" lon="120.623457800"><ele>18</ele><time>2013-03-09T08:51:39Z</time></trkpt>
 <trkpt lat="31.275884100" lon="120.623439500"><ele>18</ele><time>2013-03-09T08:51:43Z</time></trkpt>
 <trkpt lat="31.275905800" lon="120.623435300"><ele>18</ele><time>2013-03-09T08:51:47Z</time></trkpt>
 <trkpt lat="31.275902900" lon="120.623441600"><ele>18</ele><time>2013-03-09T08:51:51Z</time></trkpt>
 <trkpt lat="31.275909100" lon="120.623439100"><ele>18</ele><time>2013-03-09T08:51:55Z</time></trkpt>
 <trkpt lat="31.276041600" lon="120.623411600"><ele>17</ele><time>2013-03-09T08:51:59Z</time></trkpt>
 <trkpt lat="31.276200800" lon="120.623387800"><ele>17</ele><time>2013-03-09T08:52:03Z</time></trkpt>
 <trkpt lat="31.276313300" lon="120.623372400"><ele>16</ele><time>2013-03-09T08:52:07Z</time></trkpt>
 <trkpt lat="31.276525800" lon="120.623337000"><ele>15</ele><time>2013-03-09T08:52:11Z</time></trkpt>
 <trkpt lat="31.276771600" lon="120.623294900"><ele>14</ele><time>2013-03-09T08:52:15Z</time></trkpt>
 <trkpt lat="31.276988700" lon="120.623258700"><ele>13</ele><time>2013-03-09T08:52:19Z</time></trkpt>
 <trkpt lat="31.277147000" lon="120.623224500"><ele>13</ele><time>2013-03-09T08:52:23Z</time></trkpt>
 <trkpt lat="31.277239900" lon="120.623194900"><ele>12</ele><time>2013-03-09T08:52:27Z</time></trkpt>
 <trkpt lat="31.277344100" lon="120.623145300"><ele>11</ele><time>2013-03-09T08:52:31Z</time></trkpt>
 <trkpt lat="31.277441600" lon="120.623114900"><ele>11</ele><time>2013-03-09T08:52:35Z</time></trkpt>
 <trkpt lat="31.277595300" lon="120.623111600"><ele>11</ele><time>2013-03-09T08:52:39Z</time></trkpt>
 <trkpt lat="31.277769500" lon="120.623113300"><ele>11</ele><time>2013-03-09T08:52:43Z</time></trkpt>
 <trkpt lat="31.277973200" lon="120.623102900"><ele>11</ele><time>2013-03-09T08:52:47Z</time></trkpt>
 <trkpt lat="31.278158700" lon="120.623089100"><ele>11</ele><time>2013-03-09T08:52:51Z</time></trkpt>
 <trkpt lat="31.278297800" lon="120.623079100"><ele>11</ele><time>2013-03-09T08:52:55Z</time></trkpt>
 <trkpt lat="31.278399500" lon="120.623052400"><ele>11</ele><time>2013-03-09T08:52:59Z</time></trkpt>
 <trkpt lat="31.278452400" lon="120.623028700"><ele>11</ele><time>2013-03-09T08:53:03Z</time></trkpt>
 <trkpt lat="31.278466200" lon="120.623013200"><ele>12</ele><time>2013-03-09T08:53:07Z</time></trkpt>
 <trkpt lat="31.278501200" lon="120.623002900"><ele>12</ele><time>2013-03-09T08:53:11Z</time></trkpt>
 <trkpt lat="31.278624500" lon="120.622979100"><ele>13</ele><time>2013-03-09T08:53:15Z</time></trkpt>
 <trkpt lat="31.278791600" lon="120.622956600"><ele>13</ele><time>2013-03-09T08:53:19Z</time></trkpt>
 <trkpt lat="31.279034500" lon="120.622920300"><ele>14</ele><time>2013-03-09T08:53:23Z</time></trkpt>
 <trkpt lat="31.279331600" lon="120.622887800"><ele>15</ele><time>2013-03-09T08:53:27Z</time></trkpt>
 <trkpt lat="31.279679900" lon="120.622809900"><ele>16</ele><time>2013-03-09T08:53:31Z</time></trkpt>
 <trkpt lat="31.280037800" lon="120.622662000"><ele>17</ele><time>2013-03-09T08:53:35Z</time></trkpt>
 <trkpt lat="31.280319100" lon="120.622584100"><ele>18</ele><time>2013-03-09T08:53:39Z</time></trkpt>
 <trkpt lat="31.280536600" lon="120.622540800"><ele>18</ele><time>2013-03-09T08:53:43Z</time></trkpt>
 <trkpt lat="31.280649500" lon="120.622541600"><ele>18</ele><time>2013-03-09T08:53:47Z</time></trkpt>
 <trkpt lat="31.280766200" lon="120.622516600"><ele>18</ele><time>2013-03-09T08:53:51Z</time></trkpt>
 <trkpt lat="31.280939500" lon="120.622497400"><ele>18</ele><time>2013-03-09T08:53:55Z</time></trkpt>
 <trkpt lat="31.281106600" lon="120.622499500"><ele>18</ele><time>2013-03-09T08:53:59Z</time></trkpt>
 <trkpt lat="31.281149900" lon="120.622507400"><ele>18</ele><time>2013-03-09T08:54:03Z</time></trkpt>
 <trkpt lat="31.281153300" lon="120.622512500"><ele>18</ele><time>2013-03-09T08:54:07Z</time></trkpt>
 <trkpt lat="31.281153300" lon="120.622512500"><ele>17</ele><time>2013-03-09T08:54:11Z</time></trkpt>
 <trkpt lat="31.281153300" lon="120.622512500"><ele>17</ele><time>2013-03-09T08:54:15Z</time></trkpt>
 <trkpt lat="31.281153300" lon="120.622512500"><ele>17</ele><time>2013-03-09T08:54:19Z</time></trkpt>
 <trkpt lat="31.281153300" lon="120.622512500"><ele>16</ele><time>2013-03-09T08:54:23Z</time></trkpt>
 <trkpt lat="31.281153300" lon="120.622512500"><ele>16</ele><time>2013-03-09T08:54:27Z</time></trkpt>
 <trkpt lat="31.281153300" lon="120.622512500"><ele>15</ele><time>2013-03-09T08:54:31Z</time></trkpt>
 <trkpt lat="31.281172400" lon="120.622509900"><ele>14</ele><time>2013-03-09T08:54:35Z</time></trkpt>
 <trkpt lat="31.281257000" lon="120.622502800"><ele>14</ele><time>2013-03-09T08:54:39Z</time></trkpt>
 <trkpt lat="31.281477800" lon="120.622442000"><ele>13</ele><time>2013-03-09T08:54:43Z</time></trkpt>
 <trkpt lat="31.281759100" lon="120.622384900"><ele>12</ele><time>2013-03-09T08:54:47Z</time></trkpt>
 <trkpt lat="31.282049500" lon="120.622316200"><ele>12</ele><time>2013-03-09T08:54:51Z</time></trkpt>
 <trkpt lat="31.282344100" lon="120.622248300"><ele>12</ele><time>2013-03-09T08:54:55Z</time></trkpt>
 <trkpt lat="31.282644100" lon="120.622183300"><ele>12</ele><time>2013-03-09T08:54:59Z</time></trkpt>
 <trkpt lat="31.282969900" lon="120.622125400"><ele>12</ele><time>2013-03-09T08:55:03Z</time></trkpt>
 <trkpt lat="31.283261600" lon="120.622077000"><ele>12</ele><time>2013-03-09T08:55:07Z</time></trkpt>
 <trkpt lat="31.283461600" lon="120.622038300"><ele>13</ele><time>2013-03-09T08:55:11Z</time></trkpt>
 <trkpt lat="31.283609500" lon="120.621993700"><ele>13</ele><time>2013-03-09T08:55:15Z</time></trkpt>
 <trkpt lat="31.283733700" lon="120.621967400"><ele>14</ele><time>2013-03-09T08:55:19Z</time></trkpt>
 <trkpt lat="31.283888700" lon="120.621949100"><ele>15</ele><time>2013-03-09T08:55:23Z</time></trkpt>
 <trkpt lat="31.284101600" lon="120.621927000"><ele>15</ele><time>2013-03-09T08:55:27Z</time></trkpt>
 <trkpt lat="31.284385300" lon="120.621903200"><ele>16</ele><time>2013-03-09T08:55:31Z</time></trkpt>
 <trkpt lat="31.284709900" lon="120.621857400"><ele>17</ele><time>2013-03-09T08:55:35Z</time></trkpt>
 <trkpt lat="31.285049500" lon="120.621803300"><ele>18</ele><time>2013-03-09T08:55:39Z</time></trkpt>
 <trkpt lat="31.285381200" lon="120.621737900"><ele>18</ele><time>2013-03-09T08:55:43Z</time></trkpt>
 <trkpt lat="31.285638300" lon="120.621663700"><ele>19</ele><time>2013-03-09T08:55:47Z</time></trkpt>
 <trkpt lat="31.285777900" lon="120.621636200"><ele>20</ele><time>2013-03-09T08:55:51Z</time></trkpt>
 <trkpt lat="31.285847900" lon="120.621605300"><ele>21</ele><time>2013-03-09T08:55:55Z</time></trkpt>
 <trkpt lat="31.285920400" lon="120.621581600"><ele>21</ele><time>2013-03-09T08:55:59Z</time></trkpt>
 <trkpt lat="31.286036600" lon="120.621559100"><ele>21</ele><time>2013-03-09T08:56:03Z</time></trkpt>
 <trkpt lat="31.286122400" lon="120.621539100"><ele>22</ele><time>2013-03-09T08:56:07Z</time></trkpt>
 <trkpt lat="31.286210300" lon="120.621535400"><ele>22</ele><time>2013-03-09T08:56:11Z</time></trkpt>
 <trkpt lat="31.286282800" lon="120.621542400"><ele>22</ele><time>2013-03-09T08:56:15Z</time></trkpt>
 <trkpt lat="31.286371200" lon="120.621560800"><ele>21</ele><time>2013-03-09T08:56:19Z</time></trkpt>
 <trkpt lat="31.286484500" lon="120.621587800"><ele>21</ele><time>2013-03-09T08:56:23Z</time></trkpt>
 <trkpt lat="31.286729500" lon="120.621586200"><ele>20</ele><time>2013-03-09T08:56:27Z</time></trkpt>
 <trkpt lat="31.287135400" lon="120.621507400"><ele>20</ele><time>2013-03-09T08:56:31Z</time></trkpt>
 <trkpt lat="31.287730800" lon="120.621396200"><ele>19</ele><time>2013-03-09T08:56:35Z</time></trkpt>
 <trkpt lat="31.288369100" lon="120.621308700"><ele>19</ele><time>2013-03-09T08:56:39Z</time></trkpt>
 <trkpt lat="31.289043700" lon="120.621175800"><ele>19</ele><time>2013-03-09T08:56:43Z</time></trkpt>
 <trkpt lat="31.289730400" lon="120.621090300"><ele>19</ele><time>2013-03-09T08:56:47Z</time></trkpt>
 <trkpt lat="31.290363300" lon="120.620986600"><ele>19</ele><time>2013-03-09T08:56:51Z</time></trkpt>
 <trkpt lat="31.290938200" lon="120.620882800"><ele>19</ele><time>2013-03-09T08:56:55Z</time></trkpt>
 <trkpt lat="31.291465700" lon="120.620786600"><ele>20</ele><time>2013-03-09T08:56:59Z</time></trkpt>
 <trkpt lat="31.291950400" lon="120.620716200"><ele>20</ele><time>2013-03-09T08:57:03Z</time></trkpt>
 <trkpt lat="31.292332400" lon="120.620649900"><ele>21</ele><time>2013-03-09T08:57:07Z</time></trkpt>
 <trkpt lat="31.292625300" lon="120.620606200"><ele>21</ele><time>2013-03-09T08:57:11Z</time></trkpt>
 <trkpt lat="31.292809500" lon="120.620552400"><ele>22</ele><time>2013-03-09T08:57:15Z</time></trkpt>
 <trkpt lat="31.293003200" lon="120.620504500"><ele>23</ele><time>2013-03-09T08:57:19Z</time></trkpt>
 <trkpt lat="31.293256200" lon="120.620432900"><ele>23</ele><time>2013-03-09T08:57:23Z</time></trkpt>
 <trkpt lat="31.293492800" lon="120.620338300"><ele>24</ele><time>2013-03-09T08:57:27Z</time></trkpt>
 <trkpt lat="31.293743700" lon="120.620256200"><ele>25</ele><time>2013-03-09T08:57:31Z</time></trkpt>
 <trkpt lat="31.293989500" lon="120.620215300"><ele>26</ele><time>2013-03-09T08:57:35Z</time></trkpt>
 <trkpt lat="31.294294100" lon="120.620262400"><ele>26</ele><time>2013-03-09T08:57:39Z</time></trkpt>
 <trkpt lat="31.294647000" lon="120.620232900"><ele>26</ele><time>2013-03-09T08:57:43Z</time></trkpt>
 <trkpt lat="31.294920300" lon="120.620172400"><ele>26</ele><time>2013-03-09T08:57:47Z</time></trkpt>
 <trkpt lat="31.295137800" lon="120.620127000"><ele>25</ele><time>2013-03-09T08:57:51Z</time></trkpt>
 <trkpt lat="31.295339100" lon="120.620115300"><ele>25</ele><time>2013-03-09T08:57:55Z</time></trkpt>
 <trkpt lat="31.295458300" lon="120.620118700"><ele>24</ele><time>2013-03-09T08:57:59Z</time></trkpt>
 <trkpt lat="31.295681600" lon="120.620135800"><ele>23</ele><time>2013-03-09T08:58:03Z</time></trkpt>
 <trkpt lat="31.296015800" lon="120.620119100"><ele>21</ele><time>2013-03-09T08:58:07Z</time></trkpt>
 <trkpt lat="31.296376600" lon="120.620074500"><ele>20</ele><time>2013-03-09T08:58:11Z</time></trkpt>
 <trkpt lat="31.296566600" lon="120.620052000"><ele>19</ele><time>2013-03-09T08:58:15Z</time></trkpt>
 <trkpt lat="31.296671200" lon="120.620049500"><ele>18</ele><time>2013-03-09T08:58:19Z</time></trkpt>
 <trkpt lat="31.296844500" lon="120.620040800"><ele>16</ele><time>2013-03-09T08:58:23Z</time></trkpt>
 <trkpt lat="31.297059100" lon="120.620011600"><ele>15</ele><time>2013-03-09T08:58:27Z</time></trkpt>
 <trkpt lat="31.297302000" lon="120.619969900"><ele>14</ele><time>2013-03-09T08:58:31Z</time></trkpt>
 <trkpt lat="31.297503700" lon="120.619945800"><ele>13</ele><time>2013-03-09T08:58:35Z</time></trkpt>
 <trkpt lat="31.297669100" lon="120.619927800"><ele>12</ele><time>2013-03-09T08:58:39Z</time></trkpt>
 <trkpt lat="31.297883200" lon="120.619906600"><ele>11</ele><time>2013-03-09T08:58:43Z</time></trkpt>
 <trkpt lat="31.298157400" lon="120.619888700"><ele>11</ele><time>2013-03-09T08:58:47Z</time></trkpt>
 <trkpt lat="31.298454900" lon="120.619874900"><ele>10</ele><time>2013-03-09T08:58:51Z</time></trkpt>
 <trkpt lat="31.298659900" lon="120.619871600"><ele>10</ele><time>2013-03-09T08:58:55Z</time></trkpt>
 <trkpt lat="31.298801600" lon="120.619861200"><ele>10</ele><time>2013-03-09T08:58:59Z</time></trkpt>
 <trkpt lat="31.298857400" lon="120.619852400"><ele>10</ele><time>2013-03-09T08:59:03Z</time></trkpt>
 <trkpt lat="31.298871600" lon="120.619850000"><ele>10</ele><time>2013-03-09T08:59:07Z</time></trkpt>
 <trkpt lat="31.298871600" lon="120.619850000"><ele>10</ele><time>2013-03-09T08:59:11Z</time></trkpt>
 <trkpt lat="31.298873300" lon="120.619843300"><ele>10</ele><time>2013-03-09T08:59:15Z</time></trkpt>
 <trkpt lat="31.298873300" lon="120.619843300"><ele>10</ele><time>2013-03-09T08:59:19Z</time></trkpt>
 <trkpt lat="31.298927800" lon="120.619831600"><ele>10</ele><time>2013-03-09T08:59:23Z</time></trkpt>
 <trkpt lat="31.299089100" lon="120.619813700"><ele>10</ele><time>2013-03-09T08:59:27Z</time></trkpt>
 <trkpt lat="31.299237400" lon="120.619792400"><ele>11</ele><time>2013-03-09T08:59:31Z</time></trkpt>
 <trkpt lat="31.299371600" lon="120.619757900"><ele>11</ele><time>2013-03-09T08:59:35Z</time></trkpt>
 <trkpt lat="31.299517400" lon="120.619731200"><ele>11</ele><time>2013-03-09T08:59:39Z</time></trkpt>
 <trkpt lat="31.299646600" lon="120.619714900"><ele>12</ele><time>2013-03-09T08:59:43Z</time></trkpt>
 <trkpt lat="31.299751200" lon="120.619691600"><ele>12</ele><time>2013-03-09T08:59:47Z</time></trkpt>
 <trkpt lat="31.299909900" lon="120.619654900"><ele>12</ele><time>2013-03-09T08:59:51Z</time></trkpt>
 <trkpt lat="31.300073300" lon="120.619696600"><ele>12</ele><time>2013-03-09T08:59:55Z</time></trkpt>
 <trkpt lat="31.300224900" lon="120.619875300"><ele>13</ele><time>2013-03-09T08:59:59Z</time></trkpt>
 <trkpt lat="31.300371600" lon="120.620147000"><ele>13</ele><time>2013-03-09T09:00:03Z</time></trkpt>
 <trkpt lat="31.300502800" lon="120.620392400"><ele>13</ele><time>2013-03-09T09:00:07Z</time></trkpt>
 <trkpt lat="31.300580300" lon="120.620662000"><ele>14</ele><time>2013-03-09T09:00:11Z</time></trkpt>
 <trkpt lat="31.300592400" lon="120.620989900"><ele>14</ele><time>2013-03-09T09:00:15Z</time></trkpt>
 <trkpt lat="31.300584100" lon="120.621340800"><ele>14</ele><time>2013-03-09T09:00:19Z</time></trkpt>
 <trkpt lat="31.300582900" lon="120.621679900"><ele>14</ele><time>2013-03-09T09:00:23Z</time></trkpt>
 <trkpt lat="31.300594100" lon="120.621967000"><ele>15</ele><time>2013-03-09T09:00:27Z</time></trkpt>
 <trkpt lat="31.300612900" lon="120.622214900"><ele>15</ele><time>2013-03-09T09:00:31Z</time></trkpt>
 <trkpt lat="31.300639100" lon="120.622450800"><ele>14</ele><time>2013-03-09T09:00:35Z</time></trkpt>
 <trkpt lat="31.300654100" lon="120.622674500"><ele>14</ele><time>2013-03-09T09:00:39Z</time></trkpt>
 <trkpt lat="31.300651200" lon="120.622792000"><ele>14</ele><time>2013-03-09T09:00:43Z</time></trkpt>
 <trkpt lat="31.300643700" lon="120.622833300"><ele>14</ele><time>2013-03-09T09:00:47Z</time></trkpt>
 <trkpt lat="31.300642000" lon="120.622839500"><ele>14</ele><time>2013-03-09T09:00:51Z</time></trkpt>
 <trkpt lat="31.300642000" lon="120.622839500"><ele>14</ele><time>2013-03-09T09:00:55Z</time></trkpt>
 <trkpt lat="31.300642000" lon="120.622839500"><ele>14</ele><time>2013-03-09T09:00:59Z</time></trkpt>
 <trkpt lat="31.300637000" lon="120.622874100"><ele>14</ele><time>2013-03-09T09:01:03Z</time></trkpt>
 <trkpt lat="31.300632900" lon="120.623034500"><ele>13</ele><time>2013-03-09T09:01:07Z</time></trkpt>
 <trkpt lat="31.300658700" lon="120.623313700"><ele>13</ele><time>2013-03-09T09:01:11Z</time></trkpt>
 <trkpt lat="31.300694900" lon="120.623585400"><ele>13</ele><time>2013-03-09T09:01:15Z</time></trkpt>
 <trkpt lat="31.300717400" lon="120.623832900"><ele>13</ele><time>2013-03-09T09:01:19Z</time></trkpt>
 <trkpt lat="31.300724500" lon="120.624112000"><ele>13</ele><time>2013-03-09T09:01:23Z</time></trkpt>
 <trkpt lat="31.300731200" lon="120.624416600"><ele>13</ele><time>2013-03-09T09:01:27Z</time></trkpt>
 <trkpt lat="31.300739500" lon="120.624727400"><ele>13</ele><time>2013-03-09T09:01:31Z</time></trkpt>
 <trkpt lat="31.300746600" lon="120.625038700"><ele>13</ele><time>2013-03-09T09:01:35Z</time></trkpt>
 <trkpt lat="31.300770800" lon="120.625281600"><ele>13</ele><time>2013-03-09T09:01:39Z</time></trkpt>
 <trkpt lat="31.300826200" lon="120.625358300"><ele>13</ele><time>2013-03-09T09:01:43Z</time></trkpt>
 <trkpt lat="31.300870000" lon="120.625366600"><ele>13</ele><time>2013-03-09T09:01:44Z</time></trkpt>
</trkseg>
</trk>
<extensions>
</extensions>
</gpx>